<?xml version="1.0" encoding="UTF-8" standalone="no" ?>
<gpx xmlns="http://www.topografix.com/GPX/1/1" xmlns:xsi="http://www.w3.org/2001/XMLSchema-instance" xsi:schemaLocation="http://www.topografix.com/GPX/1/1 http://www.topografix.com/GPX/1/1/gpx.xsd" version="1.1" creator="VisuGPX - https://www.visugpx.com">
  <metadata>
    <name>50kms ouest bous joli</name>
  </metadata>
  <trk>
    <name><![CDATA[50kms ouest bous joli]]></name>
    <trkseg>
      <trkpt lat="47.12669" lon="-1.43101">
        <ele>58</ele>
        <time>2022-08-29T19:04:48.000Z</time>
      </trkpt>
      <trkpt lat="47.12674" lon="-1.43112">
        <ele>57</ele>
        <time>2022-08-29T19:04:48.001Z</time>
      </trkpt>
      <trkpt lat="47.12644" lon="-1.43142">
        <ele>57</ele>
        <time>2022-08-29T19:04:48.008Z</time>
      </trkpt>
      <trkpt lat="47.12636" lon="-1.43152">
        <ele>57</ele>
        <time>2022-08-29T19:04:48.017Z</time>
      </trkpt>
      <trkpt lat="47.12648" lon="-1.43191">
        <ele>56</ele>
        <time>2022-08-29T19:04:48.031Z</time>
      </trkpt>
      <trkpt lat="47.12654" lon="-1.43219">
        <ele>56</ele>
        <time>2022-08-29T19:04:48.048Z</time>
      </trkpt>
      <trkpt lat="47.12657" lon="-1.43244">
        <ele>55</ele>
        <time>2022-08-29T19:04:48.068Z</time>
      </trkpt>
      <trkpt lat="47.12677" lon="-1.43296">
        <ele>55</ele>
        <time>2022-08-29T19:04:48.094Z</time>
      </trkpt>
      <trkpt lat="47.1274" lon="-1.4345">
        <ele>54</ele>
        <time>2022-08-29T19:04:48.140Z</time>
      </trkpt>
      <trkpt lat="47.12761" lon="-1.43501">
        <ele>54</ele>
        <time>2022-08-29T19:04:48.192Z</time>
      </trkpt>
      <trkpt lat="47.12795" lon="-1.43614">
        <ele>53</ele>
        <time>2022-08-29T19:04:48.258Z</time>
      </trkpt>
      <trkpt lat="47.12833" lon="-1.43719">
        <ele>53</ele>
        <time>2022-08-29T19:04:48.337Z</time>
      </trkpt>
      <trkpt lat="47.12833" lon="-1.43719">
        <ele>52</ele>
        <time>2022-08-29T19:04:48.416Z</time>
      </trkpt>
      <trkpt lat="47.12844" lon="-1.43755">
        <ele>52</ele>
        <time>2022-08-29T19:04:48.499Z</time>
      </trkpt>
      <trkpt lat="47.12878" lon="-1.43864">
        <ele>52</ele>
        <time>2022-08-29T19:04:48.595Z</time>
      </trkpt>
      <trkpt lat="47.1289" lon="-1.43896">
        <ele>51</ele>
        <time>2022-08-29T19:04:48.695Z</time>
      </trkpt>
      <trkpt lat="47.1294" lon="-1.44019">
        <ele>51</ele>
        <time>2022-08-29T19:04:48.811Z</time>
      </trkpt>
      <trkpt lat="47.12973" lon="-1.441">
        <ele>50</ele>
        <time>2022-08-29T19:04:48.937Z</time>
      </trkpt>
      <trkpt lat="47.13008" lon="-1.44191">
        <ele>50</ele>
        <time>2022-08-29T19:04:49.075Z</time>
      </trkpt>
      <trkpt lat="47.13036" lon="-1.44314">
        <ele>50</ele>
        <time>2022-08-29T19:04:49.227Z</time>
      </trkpt>
      <trkpt lat="47.13036" lon="-1.44314">
        <ele>50</ele>
        <time>2022-08-29T19:04:49.379Z</time>
      </trkpt>
      <trkpt lat="47.13047" lon="-1.44395">
        <ele>50</ele>
        <time>2022-08-29T19:04:49.540Z</time>
      </trkpt>
      <trkpt lat="47.13091" lon="-1.44536">
        <ele>50</ele>
        <time>2022-08-29T19:04:49.718Z</time>
      </trkpt>
      <trkpt lat="47.13096" lon="-1.44562">
        <ele>50</ele>
        <time>2022-08-29T19:04:49.899Z</time>
      </trkpt>
      <trkpt lat="47.13098" lon="-1.44591">
        <ele>50</ele>
        <time>2022-08-29T19:04:50.083Z</time>
      </trkpt>
      <trkpt lat="47.13106" lon="-1.44703">
        <ele>50</ele>
        <time>2022-08-29T19:04:50.279Z</time>
      </trkpt>
      <trkpt lat="47.13114" lon="-1.44748">
        <ele>51</ele>
        <time>2022-08-29T19:04:50.480Z</time>
      </trkpt>
      <trkpt lat="47.13129" lon="-1.4481">
        <ele>51</ele>
        <time>2022-08-29T19:04:50.688Z</time>
      </trkpt>
      <trkpt lat="47.13129" lon="-1.4485">
        <ele>51</ele>
        <time>2022-08-29T19:04:50.901Z</time>
      </trkpt>
      <trkpt lat="47.1311" lon="-1.44996">
        <ele>51</ele>
        <time>2022-08-29T19:04:51.130Z</time>
      </trkpt>
      <trkpt lat="47.13096" lon="-1.45116">
        <ele>52</ele>
        <time>2022-08-29T19:04:51.372Z</time>
      </trkpt>
      <trkpt lat="47.1308" lon="-1.45191">
        <ele>52</ele>
        <time>2022-08-29T19:04:51.623Z</time>
      </trkpt>
      <trkpt lat="47.13075" lon="-1.45254">
        <ele>53</ele>
        <time>2022-08-29T19:04:51.881Z</time>
      </trkpt>
      <trkpt lat="47.13074" lon="-1.45281">
        <ele>53</ele>
        <time>2022-08-29T19:04:52.142Z</time>
      </trkpt>
      <trkpt lat="47.13157" lon="-1.45351">
        <ele>53</ele>
        <time>2022-08-29T19:04:52.418Z</time>
      </trkpt>
      <trkpt lat="47.13157" lon="-1.45351">
        <ele>53</ele>
        <time>2022-08-29T19:04:52.694Z</time>
      </trkpt>
      <trkpt lat="47.13178" lon="-1.45375">
        <ele>53</ele>
        <time>2022-08-29T19:04:52.974Z</time>
      </trkpt>
      <trkpt lat="47.13218" lon="-1.45429">
        <ele>54</ele>
        <time>2022-08-29T19:04:53.263Z</time>
      </trkpt>
      <trkpt lat="47.13365" lon="-1.45664">
        <ele>54</ele>
        <time>2022-08-29T19:04:53.587Z</time>
      </trkpt>
      <trkpt lat="47.13532" lon="-1.45909">
        <ele>54</ele>
        <time>2022-08-29T19:04:53.949Z</time>
      </trkpt>
      <trkpt lat="47.13557" lon="-1.45955">
        <ele>54</ele>
        <time>2022-08-29T19:04:54.317Z</time>
      </trkpt>
      <trkpt lat="47.13564" lon="-1.4597">
        <ele>54</ele>
        <time>2022-08-29T19:04:54.687Z</time>
      </trkpt>
      <trkpt lat="47.1361" lon="-1.46115">
        <ele>54</ele>
        <time>2022-08-29T19:04:55.075Z</time>
      </trkpt>
      <trkpt lat="47.1361" lon="-1.46115">
        <ele>54</ele>
        <time>2022-08-29T19:04:55.463Z</time>
      </trkpt>
      <trkpt lat="47.13665" lon="-1.46296">
        <ele>54</ele>
        <time>2022-08-29T19:04:55.872Z</time>
      </trkpt>
      <trkpt lat="47.13666" lon="-1.46305">
        <ele>54</ele>
        <time>2022-08-29T19:04:56.282Z</time>
      </trkpt>
      <trkpt lat="47.13673" lon="-1.4634">
        <ele>54</ele>
        <time>2022-08-29T19:04:56.696Z</time>
      </trkpt>
      <trkpt lat="47.13674" lon="-1.46356">
        <ele>54</ele>
        <time>2022-08-29T19:04:57.112Z</time>
      </trkpt>
      <trkpt lat="47.1367" lon="-1.46414">
        <ele>54</ele>
        <time>2022-08-29T19:04:57.535Z</time>
      </trkpt>
      <trkpt lat="47.1367" lon="-1.46414">
        <ele>54</ele>
        <time>2022-08-29T19:04:57.958Z</time>
      </trkpt>
      <trkpt lat="47.13669" lon="-1.46437">
        <ele>54</ele>
        <time>2022-08-29T19:04:58.383Z</time>
      </trkpt>
      <trkpt lat="47.13671" lon="-1.46466">
        <ele>54</ele>
        <time>2022-08-29T19:04:58.811Z</time>
      </trkpt>
      <trkpt lat="47.13684" lon="-1.46508">
        <ele>53</ele>
        <time>2022-08-29T19:04:59.244Z</time>
      </trkpt>
      <trkpt lat="47.13695" lon="-1.46536">
        <ele>53</ele>
        <time>2022-08-29T19:04:59.681Z</time>
      </trkpt>
      <trkpt lat="47.13701" lon="-1.46552">
        <ele>53</ele>
        <time>2022-08-29T19:05:00.120Z</time>
      </trkpt>
      <trkpt lat="47.13704" lon="-1.46564">
        <ele>52</ele>
        <time>2022-08-29T19:05:00.560Z</time>
      </trkpt>
      <trkpt lat="47.13715" lon="-1.46597">
        <ele>52</ele>
        <time>2022-08-29T19:05:01.004Z</time>
      </trkpt>
      <trkpt lat="47.13723" lon="-1.46632">
        <ele>52</ele>
        <time>2022-08-29T19:05:01.452Z</time>
      </trkpt>
      <trkpt lat="47.13741" lon="-1.4673">
        <ele>51</ele>
        <time>2022-08-29T19:05:01.911Z</time>
      </trkpt>
      <trkpt lat="47.13748" lon="-1.46767">
        <ele>51</ele>
        <time>2022-08-29T19:05:02.375Z</time>
      </trkpt>
      <trkpt lat="47.13767" lon="-1.46862">
        <ele>50</ele>
        <time>2022-08-29T19:05:02.849Z</time>
      </trkpt>
      <trkpt lat="47.13772" lon="-1.469">
        <ele>50</ele>
        <time>2022-08-29T19:05:03.328Z</time>
      </trkpt>
      <trkpt lat="47.13776" lon="-1.46964">
        <ele>50</ele>
        <time>2022-08-29T19:05:03.814Z</time>
      </trkpt>
      <trkpt lat="47.13781" lon="-1.47012">
        <ele>49</ele>
        <time>2022-08-29T19:05:04.305Z</time>
      </trkpt>
      <trkpt lat="47.13782" lon="-1.47054">
        <ele>49</ele>
        <time>2022-08-29T19:05:04.800Z</time>
      </trkpt>
      <trkpt lat="47.13778" lon="-1.47115">
        <ele>48</ele>
        <time>2022-08-29T19:05:05.302Z</time>
      </trkpt>
      <trkpt lat="47.13776" lon="-1.47151">
        <ele>48</ele>
        <time>2022-08-29T19:05:05.808Z</time>
      </trkpt>
      <trkpt lat="47.13776" lon="-1.47188">
        <ele>48</ele>
        <time>2022-08-29T19:05:06.318Z</time>
      </trkpt>
      <trkpt lat="47.13777" lon="-1.47206">
        <ele>47</ele>
        <time>2022-08-29T19:05:06.830Z</time>
      </trkpt>
      <trkpt lat="47.13777" lon="-1.47206">
        <ele>47</ele>
        <time>2022-08-29T19:05:07.342Z</time>
      </trkpt>
      <trkpt lat="47.13785" lon="-1.47248">
        <ele>47</ele>
        <time>2022-08-29T19:05:07.859Z</time>
      </trkpt>
      <trkpt lat="47.13836" lon="-1.47443">
        <ele>47</ele>
        <time>2022-08-29T19:05:08.399Z</time>
      </trkpt>
      <trkpt lat="47.13839" lon="-1.47449">
        <ele>47</ele>
        <time>2022-08-29T19:05:08.939Z</time>
      </trkpt>
      <trkpt lat="47.13917" lon="-1.47735">
        <ele>47</ele>
        <time>2022-08-29T19:05:09.513Z</time>
      </trkpt>
      <trkpt lat="47.13917" lon="-1.47735">
        <ele>47</ele>
        <time>2022-08-29T19:05:10.087Z</time>
      </trkpt>
      <trkpt lat="47.13925" lon="-1.47765">
        <ele>47</ele>
        <time>2022-08-29T19:05:10.665Z</time>
      </trkpt>
      <trkpt lat="47.13957" lon="-1.4788">
        <ele>47</ele>
        <time>2022-08-29T19:05:11.256Z</time>
      </trkpt>
      <trkpt lat="47.13971" lon="-1.47938">
        <ele>46</ele>
        <time>2022-08-29T19:05:11.854Z</time>
      </trkpt>
      <trkpt lat="47.13977" lon="-1.47983">
        <ele>46</ele>
        <time>2022-08-29T19:05:12.457Z</time>
      </trkpt>
      <trkpt lat="47.13978" lon="-1.48019">
        <ele>46</ele>
        <time>2022-08-29T19:05:13.064Z</time>
      </trkpt>
      <trkpt lat="47.13984" lon="-1.48207">
        <ele>46</ele>
        <time>2022-08-29T19:05:13.691Z</time>
      </trkpt>
      <trkpt lat="47.13986" lon="-1.4823">
        <ele>45</ele>
        <time>2022-08-29T19:05:14.321Z</time>
      </trkpt>
      <trkpt lat="47.13989" lon="-1.48341">
        <ele>45</ele>
        <time>2022-08-29T19:05:14.963Z</time>
      </trkpt>
      <trkpt lat="47.13992" lon="-1.48432">
        <ele>45</ele>
        <time>2022-08-29T19:05:15.615Z</time>
      </trkpt>
      <trkpt lat="47.13994" lon="-1.48461">
        <ele>44</ele>
        <time>2022-08-29T19:05:16.270Z</time>
      </trkpt>
      <trkpt lat="47.14019" lon="-1.4862">
        <ele>44</ele>
        <time>2022-08-29T19:05:16.943Z</time>
      </trkpt>
      <trkpt lat="47.14019" lon="-1.4862">
        <ele>44</ele>
        <time>2022-08-29T19:05:17.616Z</time>
      </trkpt>
      <trkpt lat="47.14049" lon="-1.48811">
        <ele>43</ele>
        <time>2022-08-29T19:05:18.310Z</time>
      </trkpt>
      <trkpt lat="47.14089" lon="-1.49">
        <ele>42</ele>
        <time>2022-08-29T19:05:19.026Z</time>
      </trkpt>
      <trkpt lat="47.14096" lon="-1.49045">
        <ele>42</ele>
        <time>2022-08-29T19:05:19.747Z</time>
      </trkpt>
      <trkpt lat="47.14097" lon="-1.49054">
        <ele>41</ele>
        <time>2022-08-29T19:05:20.469Z</time>
      </trkpt>
      <trkpt lat="47.14097" lon="-1.49058">
        <ele>41</ele>
        <time>2022-08-29T19:05:21.192Z</time>
      </trkpt>
      <trkpt lat="47.14097" lon="-1.49212">
        <ele>40</ele>
        <time>2022-08-29T19:05:21.931Z</time>
      </trkpt>
      <trkpt lat="47.14095" lon="-1.49825">
        <ele>39</ele>
        <time>2022-08-29T19:05:22.737Z</time>
      </trkpt>
      <trkpt lat="47.141" lon="-1.49881">
        <ele>38</ele>
        <time>2022-08-29T19:05:23.549Z</time>
      </trkpt>
      <trkpt lat="47.14143" lon="-1.50123">
        <ele>38</ele>
        <time>2022-08-29T19:05:24.389Z</time>
      </trkpt>
      <trkpt lat="47.14149" lon="-1.50154">
        <ele>37</ele>
        <time>2022-08-29T19:05:25.232Z</time>
      </trkpt>
      <trkpt lat="47.14157" lon="-1.50227">
        <ele>36</ele>
        <time>2022-08-29T19:05:26.083Z</time>
      </trkpt>
      <trkpt lat="47.14162" lon="-1.50316">
        <ele>36</ele>
        <time>2022-08-29T19:05:26.944Z</time>
      </trkpt>
      <trkpt lat="47.14166" lon="-1.50361">
        <ele>35</ele>
        <time>2022-08-29T19:05:27.810Z</time>
      </trkpt>
      <trkpt lat="47.14166" lon="-1.50361">
        <ele>35</ele>
        <time>2022-08-29T19:05:28.676Z</time>
      </trkpt>
      <trkpt lat="47.14169" lon="-1.50382">
        <ele>34</ele>
        <time>2022-08-29T19:05:29.544Z</time>
      </trkpt>
      <trkpt lat="47.14204" lon="-1.50558">
        <ele>33</ele>
        <time>2022-08-29T19:05:30.432Z</time>
      </trkpt>
      <trkpt lat="47.14238" lon="-1.50725">
        <ele>33</ele>
        <time>2022-08-29T19:05:31.339Z</time>
      </trkpt>
      <trkpt lat="47.14263" lon="-1.50823">
        <ele>32</ele>
        <time>2022-08-29T19:05:32.258Z</time>
      </trkpt>
      <trkpt lat="47.14263" lon="-1.50823">
        <ele>32</ele>
        <time>2022-08-29T19:05:33.177Z</time>
      </trkpt>
      <trkpt lat="47.14289" lon="-1.50916">
        <ele>32</ele>
        <time>2022-08-29T19:05:34.107Z</time>
      </trkpt>
      <trkpt lat="47.14312" lon="-1.5099">
        <ele>31</ele>
        <time>2022-08-29T19:05:35.046Z</time>
      </trkpt>
      <trkpt lat="47.14358" lon="-1.51109">
        <ele>31</ele>
        <time>2022-08-29T19:05:36.000Z</time>
      </trkpt>
      <trkpt lat="47.14407" lon="-1.51241">
        <ele>30</ele>
        <time>2022-08-29T19:05:36.970Z</time>
      </trkpt>
      <trkpt lat="47.14421" lon="-1.5127">
        <ele>30</ele>
        <time>2022-08-29T19:05:37.944Z</time>
      </trkpt>
      <trkpt lat="47.14436" lon="-1.51287">
        <ele>30</ele>
        <time>2022-08-29T19:05:38.921Z</time>
      </trkpt>
      <trkpt lat="47.14442" lon="-1.51293">
        <ele>29</ele>
        <time>2022-08-29T19:05:39.899Z</time>
      </trkpt>
      <trkpt lat="47.14463" lon="-1.51304">
        <ele>29</ele>
        <time>2022-08-29T19:05:40.881Z</time>
      </trkpt>
      <trkpt lat="47.14531" lon="-1.51311">
        <ele>29</ele>
        <time>2022-08-29T19:05:41.874Z</time>
      </trkpt>
      <trkpt lat="47.14572" lon="-1.51312">
        <ele>29</ele>
        <time>2022-08-29T19:05:42.873Z</time>
      </trkpt>
      <trkpt lat="47.146" lon="-1.5131">
        <ele>29</ele>
        <time>2022-08-29T19:05:43.877Z</time>
      </trkpt>
      <trkpt lat="47.14663" lon="-1.51297">
        <ele>29</ele>
        <time>2022-08-29T19:05:44.891Z</time>
      </trkpt>
      <trkpt lat="47.14672" lon="-1.51295">
        <ele>29</ele>
        <time>2022-08-29T19:05:45.906Z</time>
      </trkpt>
      <trkpt lat="47.14679" lon="-1.51293">
        <ele>29</ele>
        <time>2022-08-29T19:05:46.923Z</time>
      </trkpt>
      <trkpt lat="47.14689" lon="-1.51295">
        <ele>29</ele>
        <time>2022-08-29T19:05:47.941Z</time>
      </trkpt>
      <trkpt lat="47.14699" lon="-1.51301">
        <ele>29</ele>
        <time>2022-08-29T19:05:48.961Z</time>
      </trkpt>
      <trkpt lat="47.14693" lon="-1.51313">
        <ele>29</ele>
        <time>2022-08-29T19:05:49.983Z</time>
      </trkpt>
      <trkpt lat="47.14692" lon="-1.51316">
        <ele>29</ele>
        <time>2022-08-29T19:05:51.005Z</time>
      </trkpt>
      <trkpt lat="47.14638" lon="-1.51421">
        <ele>30</ele>
        <time>2022-08-29T19:05:52.041Z</time>
      </trkpt>
      <trkpt lat="47.14638" lon="-1.51421">
        <ele>30</ele>
        <time>2022-08-29T19:05:53.077Z</time>
      </trkpt>
      <trkpt lat="47.14605" lon="-1.51489">
        <ele>30</ele>
        <time>2022-08-29T19:05:54.122Z</time>
      </trkpt>
      <trkpt lat="47.14585" lon="-1.51527">
        <ele>31</ele>
        <time>2022-08-29T19:05:55.173Z</time>
      </trkpt>
      <trkpt lat="47.14546" lon="-1.51591">
        <ele>31</ele>
        <time>2022-08-29T19:05:56.233Z</time>
      </trkpt>
      <trkpt lat="47.1453" lon="-1.51612">
        <ele>32</ele>
        <time>2022-08-29T19:05:57.297Z</time>
      </trkpt>
      <trkpt lat="47.14502" lon="-1.51646">
        <ele>32</ele>
        <time>2022-08-29T19:05:58.366Z</time>
      </trkpt>
      <trkpt lat="47.14398" lon="-1.51751">
        <ele>33</ele>
        <time>2022-08-29T19:05:59.456Z</time>
      </trkpt>
      <trkpt lat="47.14307" lon="-1.51843">
        <ele>33</ele>
        <time>2022-08-29T19:06:00.563Z</time>
      </trkpt>
      <trkpt lat="47.14307" lon="-1.51843">
        <ele>33</ele>
        <time>2022-08-29T19:06:01.670Z</time>
      </trkpt>
      <trkpt lat="47.14212" lon="-1.51939">
        <ele>34</ele>
        <time>2022-08-29T19:06:02.796Z</time>
      </trkpt>
      <trkpt lat="47.14212" lon="-1.51939">
        <ele>34</ele>
        <time>2022-08-29T19:06:03.922Z</time>
      </trkpt>
      <trkpt lat="47.14148" lon="-1.52">
        <ele>34</ele>
        <time>2022-08-29T19:06:05.060Z</time>
      </trkpt>
      <trkpt lat="47.14145" lon="-1.52001">
        <ele>34</ele>
        <time>2022-08-29T19:06:06.198Z</time>
      </trkpt>
      <trkpt lat="47.14082" lon="-1.52061">
        <ele>35</ele>
        <time>2022-08-29T19:06:07.348Z</time>
      </trkpt>
      <trkpt lat="47.14067" lon="-1.52082">
        <ele>35</ele>
        <time>2022-08-29T19:06:08.502Z</time>
      </trkpt>
      <trkpt lat="47.1406" lon="-1.52105">
        <ele>35</ele>
        <time>2022-08-29T19:06:09.658Z</time>
      </trkpt>
      <trkpt lat="47.14048" lon="-1.52127">
        <ele>35</ele>
        <time>2022-08-29T19:06:10.818Z</time>
      </trkpt>
      <trkpt lat="47.14039" lon="-1.52134">
        <ele>35</ele>
        <time>2022-08-29T19:06:11.979Z</time>
      </trkpt>
      <trkpt lat="47.14021" lon="-1.5214">
        <ele>35</ele>
        <time>2022-08-29T19:06:13.143Z</time>
      </trkpt>
      <trkpt lat="47.14006" lon="-1.5215">
        <ele>35</ele>
        <time>2022-08-29T19:06:14.310Z</time>
      </trkpt>
      <trkpt lat="47.13992" lon="-1.52163">
        <ele>35</ele>
        <time>2022-08-29T19:06:15.479Z</time>
      </trkpt>
      <trkpt lat="47.1398" lon="-1.52177">
        <ele>34</ele>
        <time>2022-08-29T19:06:16.651Z</time>
      </trkpt>
      <trkpt lat="47.13884" lon="-1.52313">
        <ele>34</ele>
        <time>2022-08-29T19:06:17.844Z</time>
      </trkpt>
      <trkpt lat="47.13884" lon="-1.52313">
        <ele>34</ele>
        <time>2022-08-29T19:06:19.037Z</time>
      </trkpt>
      <trkpt lat="47.13886" lon="-1.52318">
        <ele>34</ele>
        <time>2022-08-29T19:06:20.231Z</time>
      </trkpt>
      <trkpt lat="47.13887" lon="-1.52328">
        <ele>33</ele>
        <time>2022-08-29T19:06:21.426Z</time>
      </trkpt>
      <trkpt lat="47.13885" lon="-1.52337">
        <ele>33</ele>
        <time>2022-08-29T19:06:22.622Z</time>
      </trkpt>
      <trkpt lat="47.13879" lon="-1.52343">
        <ele>33</ele>
        <time>2022-08-29T19:06:23.819Z</time>
      </trkpt>
      <trkpt lat="47.13873" lon="-1.52345">
        <ele>33</ele>
        <time>2022-08-29T19:06:25.017Z</time>
      </trkpt>
      <trkpt lat="47.13865" lon="-1.5234">
        <ele>32</ele>
        <time>2022-08-29T19:06:26.216Z</time>
      </trkpt>
      <trkpt lat="47.13849" lon="-1.52366">
        <ele>32</ele>
        <time>2022-08-29T19:06:27.419Z</time>
      </trkpt>
      <trkpt lat="47.13791" lon="-1.52454">
        <ele>32</ele>
        <time>2022-08-29T19:06:28.636Z</time>
      </trkpt>
      <trkpt lat="47.13743" lon="-1.52531">
        <ele>31</ele>
        <time>2022-08-29T19:06:29.864Z</time>
      </trkpt>
      <trkpt lat="47.1368" lon="-1.52631">
        <ele>31</ele>
        <time>2022-08-29T19:06:31.107Z</time>
      </trkpt>
      <trkpt lat="47.1368" lon="-1.52631">
        <ele>31</ele>
        <time>2022-08-29T19:06:32.350Z</time>
      </trkpt>
      <trkpt lat="47.13596" lon="-1.52765">
        <ele>30</ele>
        <time>2022-08-29T19:06:33.613Z</time>
      </trkpt>
      <trkpt lat="47.13433" lon="-1.53127">
        <ele>29</ele>
        <time>2022-08-29T19:06:34.923Z</time>
      </trkpt>
      <trkpt lat="47.13432" lon="-1.53144">
        <ele>29</ele>
        <time>2022-08-29T19:06:36.235Z</time>
      </trkpt>
      <trkpt lat="47.13398" lon="-1.53143">
        <ele>29</ele>
        <time>2022-08-29T19:06:37.553Z</time>
      </trkpt>
      <trkpt lat="47.13398" lon="-1.53143">
        <ele>28</ele>
        <time>2022-08-29T19:06:38.871Z</time>
      </trkpt>
      <trkpt lat="47.13382" lon="-1.53142">
        <ele>28</ele>
        <time>2022-08-29T19:06:40.191Z</time>
      </trkpt>
      <trkpt lat="47.13353" lon="-1.53147">
        <ele>28</ele>
        <time>2022-08-29T19:06:41.516Z</time>
      </trkpt>
      <trkpt lat="47.13334" lon="-1.53152">
        <ele>27</ele>
        <time>2022-08-29T19:06:42.844Z</time>
      </trkpt>
      <trkpt lat="47.13325" lon="-1.53155">
        <ele>27</ele>
        <time>2022-08-29T19:06:44.173Z</time>
      </trkpt>
      <trkpt lat="47.13239" lon="-1.53187">
        <ele>27</ele>
        <time>2022-08-29T19:06:45.517Z</time>
      </trkpt>
      <trkpt lat="47.13197" lon="-1.53205">
        <ele>26</ele>
        <time>2022-08-29T19:06:46.868Z</time>
      </trkpt>
      <trkpt lat="47.13153" lon="-1.53222">
        <ele>26</ele>
        <time>2022-08-29T19:06:48.226Z</time>
      </trkpt>
      <trkpt lat="47.13235" lon="-1.5348">
        <ele>26</ele>
        <time>2022-08-29T19:06:49.615Z</time>
      </trkpt>
      <trkpt lat="47.13268" lon="-1.53583">
        <ele>26</ele>
        <time>2022-08-29T19:06:51.016Z</time>
      </trkpt>
      <trkpt lat="47.13304" lon="-1.53687">
        <ele>26</ele>
        <time>2022-08-29T19:06:52.430Z</time>
      </trkpt>
      <trkpt lat="47.13333" lon="-1.53759">
        <ele>25</ele>
        <time>2022-08-29T19:06:53.853Z</time>
      </trkpt>
      <trkpt lat="47.13405" lon="-1.53893">
        <ele>25</ele>
        <time>2022-08-29T19:06:55.295Z</time>
      </trkpt>
      <trkpt lat="47.13476" lon="-1.54025">
        <ele>25</ele>
        <time>2022-08-29T19:06:56.755Z</time>
      </trkpt>
      <trkpt lat="47.13562" lon="-1.54155">
        <ele>25</ele>
        <time>2022-08-29T19:06:58.235Z</time>
      </trkpt>
      <trkpt lat="47.13581" lon="-1.5418">
        <ele>25</ele>
        <time>2022-08-29T19:06:59.719Z</time>
      </trkpt>
      <trkpt lat="47.13606" lon="-1.54201">
        <ele>25</ele>
        <time>2022-08-29T19:07:01.208Z</time>
      </trkpt>
      <trkpt lat="47.1361" lon="-1.54204">
        <ele>25</ele>
        <time>2022-08-29T19:07:02.698Z</time>
      </trkpt>
      <trkpt lat="47.13635" lon="-1.54218">
        <ele>24</ele>
        <time>2022-08-29T19:07:04.192Z</time>
      </trkpt>
      <trkpt lat="47.13715" lon="-1.54263">
        <ele>24</ele>
        <time>2022-08-29T19:07:05.700Z</time>
      </trkpt>
      <trkpt lat="47.13802" lon="-1.54301">
        <ele>24</ele>
        <time>2022-08-29T19:07:07.222Z</time>
      </trkpt>
      <trkpt lat="47.13825" lon="-1.54311">
        <ele>24</ele>
        <time>2022-08-29T19:07:08.748Z</time>
      </trkpt>
      <trkpt lat="47.13843" lon="-1.54322">
        <ele>23</ele>
        <time>2022-08-29T19:07:10.277Z</time>
      </trkpt>
      <trkpt lat="47.13912" lon="-1.54379">
        <ele>23</ele>
        <time>2022-08-29T19:07:11.819Z</time>
      </trkpt>
      <trkpt lat="47.13912" lon="-1.54379">
        <ele>23</ele>
        <time>2022-08-29T19:07:13.361Z</time>
      </trkpt>
      <trkpt lat="47.14054" lon="-1.54495">
        <ele>22</ele>
        <time>2022-08-29T19:07:14.929Z</time>
      </trkpt>
      <trkpt lat="47.14083" lon="-1.54521">
        <ele>22</ele>
        <time>2022-08-29T19:07:16.502Z</time>
      </trkpt>
      <trkpt lat="47.14113" lon="-1.54562">
        <ele>22</ele>
        <time>2022-08-29T19:07:18.082Z</time>
      </trkpt>
      <trkpt lat="47.14155" lon="-1.54613">
        <ele>22</ele>
        <time>2022-08-29T19:07:19.670Z</time>
      </trkpt>
      <trkpt lat="47.14199" lon="-1.54663">
        <ele>21</ele>
        <time>2022-08-29T19:07:21.267Z</time>
      </trkpt>
      <trkpt lat="47.14201" lon="-1.54665">
        <ele>21</ele>
        <time>2022-08-29T19:07:22.865Z</time>
      </trkpt>
      <trkpt lat="47.14192" lon="-1.54697">
        <ele>21</ele>
        <time>2022-08-29T19:07:24.467Z</time>
      </trkpt>
      <trkpt lat="47.14184" lon="-1.54729">
        <ele>20</ele>
        <time>2022-08-29T19:07:26.072Z</time>
      </trkpt>
      <trkpt lat="47.14169" lon="-1.54804">
        <ele>20</ele>
        <time>2022-08-29T19:07:27.686Z</time>
      </trkpt>
      <trkpt lat="47.14157" lon="-1.5485">
        <ele>20</ele>
        <time>2022-08-29T19:07:29.305Z</time>
      </trkpt>
      <trkpt lat="47.14142" lon="-1.54886">
        <ele>20</ele>
        <time>2022-08-29T19:07:30.929Z</time>
      </trkpt>
      <trkpt lat="47.14081" lon="-1.54997">
        <ele>19</ele>
        <time>2022-08-29T19:07:32.568Z</time>
      </trkpt>
      <trkpt lat="47.1407" lon="-1.55016">
        <ele>19</ele>
        <time>2022-08-29T19:07:34.210Z</time>
      </trkpt>
      <trkpt lat="47.14057" lon="-1.55031">
        <ele>19</ele>
        <time>2022-08-29T19:07:35.855Z</time>
      </trkpt>
      <trkpt lat="47.14023" lon="-1.55062">
        <ele>19</ele>
        <time>2022-08-29T19:07:37.506Z</time>
      </trkpt>
      <trkpt lat="47.13938" lon="-1.5512">
        <ele>18</ele>
        <time>2022-08-29T19:07:39.172Z</time>
      </trkpt>
      <trkpt lat="47.13904" lon="-1.55148">
        <ele>18</ele>
        <time>2022-08-29T19:07:40.844Z</time>
      </trkpt>
      <trkpt lat="47.13891" lon="-1.55168">
        <ele>18</ele>
        <time>2022-08-29T19:07:42.519Z</time>
      </trkpt>
      <trkpt lat="47.13797" lon="-1.55375">
        <ele>18</ele>
        <time>2022-08-29T19:07:44.222Z</time>
      </trkpt>
      <trkpt lat="47.13797" lon="-1.55375">
        <ele>18</ele>
        <time>2022-08-29T19:07:45.925Z</time>
      </trkpt>
      <trkpt lat="47.13767" lon="-1.5543">
        <ele>17</ele>
        <time>2022-08-29T19:07:47.635Z</time>
      </trkpt>
      <trkpt lat="47.13742" lon="-1.55461">
        <ele>17</ele>
        <time>2022-08-29T19:07:49.351Z</time>
      </trkpt>
      <trkpt lat="47.1366" lon="-1.55557">
        <ele>17</ele>
        <time>2022-08-29T19:07:51.083Z</time>
      </trkpt>
      <trkpt lat="47.1364" lon="-1.55588">
        <ele>16</ele>
        <time>2022-08-29T19:07:52.820Z</time>
      </trkpt>
      <trkpt lat="47.13595" lon="-1.55675">
        <ele>16</ele>
        <time>2022-08-29T19:07:54.569Z</time>
      </trkpt>
      <trkpt lat="47.13595" lon="-1.55675">
        <ele>16</ele>
        <time>2022-08-29T19:07:56.318Z</time>
      </trkpt>
      <trkpt lat="47.13584" lon="-1.557">
        <ele>16</ele>
        <time>2022-08-29T19:07:58.070Z</time>
      </trkpt>
      <trkpt lat="47.13557" lon="-1.55774">
        <ele>15</ele>
        <time>2022-08-29T19:07:59.831Z</time>
      </trkpt>
      <trkpt lat="47.13527" lon="-1.55835">
        <ele>15</ele>
        <time>2022-08-29T19:08:01.601Z</time>
      </trkpt>
      <trkpt lat="47.13437" lon="-1.55997">
        <ele>14</ele>
        <time>2022-08-29T19:08:03.393Z</time>
      </trkpt>
      <trkpt lat="47.13428" lon="-1.56013">
        <ele>14</ele>
        <time>2022-08-29T19:08:05.188Z</time>
      </trkpt>
      <trkpt lat="47.13407" lon="-1.56039">
        <ele>14</ele>
        <time>2022-08-29T19:08:06.987Z</time>
      </trkpt>
      <trkpt lat="47.13294" lon="-1.56162">
        <ele>14</ele>
        <time>2022-08-29T19:08:08.809Z</time>
      </trkpt>
      <trkpt lat="47.13273" lon="-1.56189">
        <ele>14</ele>
        <time>2022-08-29T19:08:10.635Z</time>
      </trkpt>
      <trkpt lat="47.13256" lon="-1.56213">
        <ele>13</ele>
        <time>2022-08-29T19:08:12.465Z</time>
      </trkpt>
      <trkpt lat="47.13225" lon="-1.56267">
        <ele>13</ele>
        <time>2022-08-29T19:08:14.303Z</time>
      </trkpt>
      <trkpt lat="47.13197" lon="-1.56318">
        <ele>13</ele>
        <time>2022-08-29T19:08:16.148Z</time>
      </trkpt>
      <trkpt lat="47.1311" lon="-1.56478">
        <ele>13</ele>
        <time>2022-08-29T19:08:18.015Z</time>
      </trkpt>
      <trkpt lat="47.13107" lon="-1.56484">
        <ele>13</ele>
        <time>2022-08-29T19:08:19.883Z</time>
      </trkpt>
      <trkpt lat="47.13093" lon="-1.5651">
        <ele>12</ele>
        <time>2022-08-29T19:08:21.755Z</time>
      </trkpt>
      <trkpt lat="47.13076" lon="-1.56534">
        <ele>12</ele>
        <time>2022-08-29T19:08:23.630Z</time>
      </trkpt>
      <trkpt lat="47.13041" lon="-1.56569">
        <ele>12</ele>
        <time>2022-08-29T19:08:25.512Z</time>
      </trkpt>
      <trkpt lat="47.12992" lon="-1.56613">
        <ele>12</ele>
        <time>2022-08-29T19:08:27.403Z</time>
      </trkpt>
      <trkpt lat="47.12916" lon="-1.56671">
        <ele>12</ele>
        <time>2022-08-29T19:08:29.308Z</time>
      </trkpt>
      <trkpt lat="47.12893" lon="-1.56694">
        <ele>11</ele>
        <time>2022-08-29T19:08:31.217Z</time>
      </trkpt>
      <trkpt lat="47.12888" lon="-1.56701">
        <ele>11</ele>
        <time>2022-08-29T19:08:33.128Z</time>
      </trkpt>
      <trkpt lat="47.12882" lon="-1.56724">
        <ele>11</ele>
        <time>2022-08-29T19:08:35.041Z</time>
      </trkpt>
      <trkpt lat="47.12876" lon="-1.56752">
        <ele>11</ele>
        <time>2022-08-29T19:08:36.957Z</time>
      </trkpt>
      <trkpt lat="47.12871" lon="-1.56785">
        <ele>10</ele>
        <time>2022-08-29T19:08:38.877Z</time>
      </trkpt>
      <trkpt lat="47.12869" lon="-1.56818">
        <ele>10</ele>
        <time>2022-08-29T19:08:40.801Z</time>
      </trkpt>
      <trkpt lat="47.1287" lon="-1.56872">
        <ele>10</ele>
        <time>2022-08-29T19:08:42.731Z</time>
      </trkpt>
      <trkpt lat="47.12874" lon="-1.56914">
        <ele>9</ele>
        <time>2022-08-29T19:08:44.665Z</time>
      </trkpt>
      <trkpt lat="47.129" lon="-1.57084">
        <ele>9</ele>
        <time>2022-08-29T19:08:46.618Z</time>
      </trkpt>
      <trkpt lat="47.12902" lon="-1.57113">
        <ele>9</ele>
        <time>2022-08-29T19:08:48.575Z</time>
      </trkpt>
      <trkpt lat="47.12903" lon="-1.57138">
        <ele>8</ele>
        <time>2022-08-29T19:08:50.534Z</time>
      </trkpt>
      <trkpt lat="47.12883" lon="-1.57295">
        <ele>8</ele>
        <time>2022-08-29T19:08:52.511Z</time>
      </trkpt>
      <trkpt lat="47.12883" lon="-1.57295">
        <ele>8</ele>
        <time>2022-08-29T19:08:54.488Z</time>
      </trkpt>
      <trkpt lat="47.12876" lon="-1.57338">
        <ele>7</ele>
        <time>2022-08-29T19:08:56.470Z</time>
      </trkpt>
      <trkpt lat="47.12873" lon="-1.57359">
        <ele>7</ele>
        <time>2022-08-29T19:08:58.454Z</time>
      </trkpt>
      <trkpt lat="47.12865" lon="-1.57415">
        <ele>7</ele>
        <time>2022-08-29T19:09:00.444Z</time>
      </trkpt>
      <trkpt lat="47.12859" lon="-1.57483">
        <ele>6</ele>
        <time>2022-08-29T19:09:02.442Z</time>
      </trkpt>
      <trkpt lat="47.12859" lon="-1.57604">
        <ele>6</ele>
        <time>2022-08-29T19:09:04.453Z</time>
      </trkpt>
      <trkpt lat="47.12859" lon="-1.57604">
        <ele>6</ele>
        <time>2022-08-29T19:09:06.464Z</time>
      </trkpt>
      <trkpt lat="47.12863" lon="-1.57673">
        <ele>6</ele>
        <time>2022-08-29T19:09:08.482Z</time>
      </trkpt>
      <trkpt lat="47.12874" lon="-1.57795">
        <ele>6</ele>
        <time>2022-08-29T19:09:10.514Z</time>
      </trkpt>
      <trkpt lat="47.1288" lon="-1.57837">
        <ele>6</ele>
        <time>2022-08-29T19:09:12.551Z</time>
      </trkpt>
      <trkpt lat="47.12889" lon="-1.57874">
        <ele>6</ele>
        <time>2022-08-29T19:09:14.592Z</time>
      </trkpt>
      <trkpt lat="47.12906" lon="-1.57927">
        <ele>7</ele>
        <time>2022-08-29T19:09:16.639Z</time>
      </trkpt>
      <trkpt lat="47.12921" lon="-1.57954">
        <ele>7</ele>
        <time>2022-08-29T19:09:18.690Z</time>
      </trkpt>
      <trkpt lat="47.12937" lon="-1.57953">
        <ele>7</ele>
        <time>2022-08-29T19:09:20.744Z</time>
      </trkpt>
      <trkpt lat="47.12945" lon="-1.57949">
        <ele>7</ele>
        <time>2022-08-29T19:09:22.799Z</time>
      </trkpt>
      <trkpt lat="47.12949" lon="-1.57949">
        <ele>7</ele>
        <time>2022-08-29T19:09:24.855Z</time>
      </trkpt>
      <trkpt lat="47.12952" lon="-1.57951">
        <ele>7</ele>
        <time>2022-08-29T19:09:26.911Z</time>
      </trkpt>
      <trkpt lat="47.12959" lon="-1.57959">
        <ele>7</ele>
        <time>2022-08-29T19:09:28.969Z</time>
      </trkpt>
      <trkpt lat="47.12981" lon="-1.5797">
        <ele>7</ele>
        <time>2022-08-29T19:09:31.030Z</time>
      </trkpt>
      <trkpt lat="47.12959" lon="-1.57981">
        <ele>8</ele>
        <time>2022-08-29T19:09:33.095Z</time>
      </trkpt>
      <trkpt lat="47.12952" lon="-1.57989">
        <ele>8</ele>
        <time>2022-08-29T19:09:35.161Z</time>
      </trkpt>
      <trkpt lat="47.12945" lon="-1.57991">
        <ele>8</ele>
        <time>2022-08-29T19:09:37.229Z</time>
      </trkpt>
      <trkpt lat="47.12945" lon="-1.58011">
        <ele>8</ele>
        <time>2022-08-29T19:09:39.299Z</time>
      </trkpt>
      <trkpt lat="47.12944" lon="-1.58034">
        <ele>8</ele>
        <time>2022-08-29T19:09:41.371Z</time>
      </trkpt>
      <trkpt lat="47.12938" lon="-1.58089">
        <ele>8</ele>
        <time>2022-08-29T19:09:43.450Z</time>
      </trkpt>
      <trkpt lat="47.12938" lon="-1.581">
        <ele>9</ele>
        <time>2022-08-29T19:09:45.530Z</time>
      </trkpt>
      <trkpt lat="47.12934" lon="-1.58139">
        <ele>9</ele>
        <time>2022-08-29T19:09:47.614Z</time>
      </trkpt>
      <trkpt lat="47.12937" lon="-1.58141">
        <ele>9</ele>
        <time>2022-08-29T19:09:49.699Z</time>
      </trkpt>
      <trkpt lat="47.12938" lon="-1.58147">
        <ele>9</ele>
        <time>2022-08-29T19:09:51.784Z</time>
      </trkpt>
      <trkpt lat="47.12935" lon="-1.58153">
        <ele>9</ele>
        <time>2022-08-29T19:09:53.870Z</time>
      </trkpt>
      <trkpt lat="47.12932" lon="-1.58154">
        <ele>9</ele>
        <time>2022-08-29T19:09:55.957Z</time>
      </trkpt>
      <trkpt lat="47.12902" lon="-1.58271">
        <ele>9</ele>
        <time>2022-08-29T19:09:58.057Z</time>
      </trkpt>
      <trkpt lat="47.12893" lon="-1.58316">
        <ele>10</ele>
        <time>2022-08-29T19:10:00.162Z</time>
      </trkpt>
      <trkpt lat="47.12893" lon="-1.58316">
        <ele>10</ele>
        <time>2022-08-29T19:10:02.267Z</time>
      </trkpt>
      <trkpt lat="47.12888" lon="-1.58373">
        <ele>10</ele>
        <time>2022-08-29T19:10:04.379Z</time>
      </trkpt>
      <trkpt lat="47.12887" lon="-1.58441">
        <ele>10</ele>
        <time>2022-08-29T19:10:06.498Z</time>
      </trkpt>
      <trkpt lat="47.12891" lon="-1.58445">
        <ele>10</ele>
        <time>2022-08-29T19:10:08.618Z</time>
      </trkpt>
      <trkpt lat="47.12891" lon="-1.58449">
        <ele>10</ele>
        <time>2022-08-29T19:10:10.738Z</time>
      </trkpt>
      <trkpt lat="47.1289" lon="-1.58453">
        <ele>11</ele>
        <time>2022-08-29T19:10:12.859Z</time>
      </trkpt>
      <trkpt lat="47.12887" lon="-1.58455">
        <ele>11</ele>
        <time>2022-08-29T19:10:14.980Z</time>
      </trkpt>
      <trkpt lat="47.12886" lon="-1.58611">
        <ele>11</ele>
        <time>2022-08-29T19:10:17.118Z</time>
      </trkpt>
      <trkpt lat="47.12898" lon="-1.58609">
        <ele>12</ele>
        <time>2022-08-29T19:10:19.258Z</time>
      </trkpt>
      <trkpt lat="47.12915" lon="-1.58608">
        <ele>12</ele>
        <time>2022-08-29T19:10:21.401Z</time>
      </trkpt>
      <trkpt lat="47.12945" lon="-1.58608">
        <ele>12</ele>
        <time>2022-08-29T19:10:23.549Z</time>
      </trkpt>
      <trkpt lat="47.1299" lon="-1.58615">
        <ele>12</ele>
        <time>2022-08-29T19:10:25.704Z</time>
      </trkpt>
      <trkpt lat="47.13027" lon="-1.58623">
        <ele>13</ele>
        <time>2022-08-29T19:10:27.865Z</time>
      </trkpt>
      <trkpt lat="47.13071" lon="-1.58633">
        <ele>13</ele>
        <time>2022-08-29T19:10:30.033Z</time>
      </trkpt>
      <trkpt lat="47.13096" lon="-1.58639">
        <ele>14</ele>
        <time>2022-08-29T19:10:32.205Z</time>
      </trkpt>
      <trkpt lat="47.13082" lon="-1.58683">
        <ele>14</ele>
        <time>2022-08-29T19:10:34.383Z</time>
      </trkpt>
      <trkpt lat="47.13079" lon="-1.58699">
        <ele>14</ele>
        <time>2022-08-29T19:10:36.562Z</time>
      </trkpt>
      <trkpt lat="47.13067" lon="-1.58816">
        <ele>15</ele>
        <time>2022-08-29T19:10:38.754Z</time>
      </trkpt>
      <trkpt lat="47.13067" lon="-1.58816">
        <ele>15</ele>
        <time>2022-08-29T19:10:40.946Z</time>
      </trkpt>
      <trkpt lat="47.13059" lon="-1.58906">
        <ele>16</ele>
        <time>2022-08-29T19:10:43.148Z</time>
      </trkpt>
      <trkpt lat="47.1306" lon="-1.58932">
        <ele>16</ele>
        <time>2022-08-29T19:10:45.353Z</time>
      </trkpt>
      <trkpt lat="47.13065" lon="-1.58992">
        <ele>16</ele>
        <time>2022-08-29T19:10:47.565Z</time>
      </trkpt>
      <trkpt lat="47.13088" lon="-1.59146">
        <ele>17</ele>
        <time>2022-08-29T19:10:49.794Z</time>
      </trkpt>
      <trkpt lat="47.13092" lon="-1.59187">
        <ele>17</ele>
        <time>2022-08-29T19:10:52.028Z</time>
      </trkpt>
      <trkpt lat="47.13093" lon="-1.59253">
        <ele>17</ele>
        <time>2022-08-29T19:10:54.269Z</time>
      </trkpt>
      <trkpt lat="47.1309" lon="-1.59302">
        <ele>17</ele>
        <time>2022-08-29T19:10:56.515Z</time>
      </trkpt>
      <trkpt lat="47.1309" lon="-1.5932">
        <ele>18</ele>
        <time>2022-08-29T19:10:58.763Z</time>
      </trkpt>
      <trkpt lat="47.13084" lon="-1.59358">
        <ele>18</ele>
        <time>2022-08-29T19:11:01.015Z</time>
      </trkpt>
      <trkpt lat="47.13085" lon="-1.59365">
        <ele>18</ele>
        <time>2022-08-29T19:11:03.268Z</time>
      </trkpt>
      <trkpt lat="47.13088" lon="-1.59369">
        <ele>18</ele>
        <time>2022-08-29T19:11:05.522Z</time>
      </trkpt>
      <trkpt lat="47.13112" lon="-1.59388">
        <ele>17</ele>
        <time>2022-08-29T19:11:07.780Z</time>
      </trkpt>
      <trkpt lat="47.13176" lon="-1.59426">
        <ele>17</ele>
        <time>2022-08-29T19:11:10.049Z</time>
      </trkpt>
      <trkpt lat="47.13183" lon="-1.59435">
        <ele>17</ele>
        <time>2022-08-29T19:11:12.320Z</time>
      </trkpt>
      <trkpt lat="47.13192" lon="-1.59452">
        <ele>17</ele>
        <time>2022-08-29T19:11:14.593Z</time>
      </trkpt>
      <trkpt lat="47.13202" lon="-1.59517">
        <ele>17</ele>
        <time>2022-08-29T19:11:16.873Z</time>
      </trkpt>
      <trkpt lat="47.13215" lon="-1.59566">
        <ele>17</ele>
        <time>2022-08-29T19:11:19.159Z</time>
      </trkpt>
      <trkpt lat="47.13233" lon="-1.59625">
        <ele>17</ele>
        <time>2022-08-29T19:11:21.452Z</time>
      </trkpt>
      <trkpt lat="47.13273" lon="-1.59774">
        <ele>16</ele>
        <time>2022-08-29T19:11:23.763Z</time>
      </trkpt>
      <trkpt lat="47.13287" lon="-1.5982">
        <ele>16</ele>
        <time>2022-08-29T19:11:26.079Z</time>
      </trkpt>
      <trkpt lat="47.1329" lon="-1.59827">
        <ele>16</ele>
        <time>2022-08-29T19:11:28.396Z</time>
      </trkpt>
      <trkpt lat="47.13309" lon="-1.59878">
        <ele>16</ele>
        <time>2022-08-29T19:11:30.719Z</time>
      </trkpt>
      <trkpt lat="47.13311" lon="-1.59885">
        <ele>16</ele>
        <time>2022-08-29T19:11:33.043Z</time>
      </trkpt>
      <trkpt lat="47.13321" lon="-1.59906">
        <ele>15</ele>
        <time>2022-08-29T19:11:35.370Z</time>
      </trkpt>
      <trkpt lat="47.13377" lon="-1.60009">
        <ele>15</ele>
        <time>2022-08-29T19:11:37.711Z</time>
      </trkpt>
      <trkpt lat="47.1342" lon="-1.60083">
        <ele>15</ele>
        <time>2022-08-29T19:11:40.063Z</time>
      </trkpt>
      <trkpt lat="47.13452" lon="-1.60144">
        <ele>15</ele>
        <time>2022-08-29T19:11:42.423Z</time>
      </trkpt>
      <trkpt lat="47.13482" lon="-1.60191">
        <ele>15</ele>
        <time>2022-08-29T19:11:44.790Z</time>
      </trkpt>
      <trkpt lat="47.13503" lon="-1.60221">
        <ele>15</ele>
        <time>2022-08-29T19:11:47.162Z</time>
      </trkpt>
      <trkpt lat="47.13519" lon="-1.60239">
        <ele>15</ele>
        <time>2022-08-29T19:11:49.537Z</time>
      </trkpt>
      <trkpt lat="47.1354" lon="-1.60253">
        <ele>15</ele>
        <time>2022-08-29T19:11:51.916Z</time>
      </trkpt>
      <trkpt lat="47.13599" lon="-1.60283">
        <ele>15</ele>
        <time>2022-08-29T19:11:54.305Z</time>
      </trkpt>
      <trkpt lat="47.13612" lon="-1.6029">
        <ele>15</ele>
        <time>2022-08-29T19:11:56.696Z</time>
      </trkpt>
      <trkpt lat="47.13652" lon="-1.60331">
        <ele>15</ele>
        <time>2022-08-29T19:11:59.095Z</time>
      </trkpt>
      <trkpt lat="47.13657" lon="-1.60356">
        <ele>15</ele>
        <time>2022-08-29T19:12:01.497Z</time>
      </trkpt>
      <trkpt lat="47.1366" lon="-1.60405">
        <ele>15</ele>
        <time>2022-08-29T19:12:03.904Z</time>
      </trkpt>
      <trkpt lat="47.13665" lon="-1.6045">
        <ele>15</ele>
        <time>2022-08-29T19:12:06.316Z</time>
      </trkpt>
      <trkpt lat="47.1367" lon="-1.60475">
        <ele>15</ele>
        <time>2022-08-29T19:12:08.731Z</time>
      </trkpt>
      <trkpt lat="47.13682" lon="-1.60497">
        <ele>16</ele>
        <time>2022-08-29T19:12:11.149Z</time>
      </trkpt>
      <trkpt lat="47.1371" lon="-1.60528">
        <ele>16</ele>
        <time>2022-08-29T19:12:13.573Z</time>
      </trkpt>
      <trkpt lat="47.1373" lon="-1.60547">
        <ele>16</ele>
        <time>2022-08-29T19:12:16.001Z</time>
      </trkpt>
      <trkpt lat="47.13756" lon="-1.6056">
        <ele>16</ele>
        <time>2022-08-29T19:12:18.433Z</time>
      </trkpt>
      <trkpt lat="47.13756" lon="-1.6056">
        <ele>16</ele>
        <time>2022-08-29T19:12:20.865Z</time>
      </trkpt>
      <trkpt lat="47.13789" lon="-1.60552">
        <ele>16</ele>
        <time>2022-08-29T19:12:23.302Z</time>
      </trkpt>
      <trkpt lat="47.13804" lon="-1.60551">
        <ele>17</ele>
        <time>2022-08-29T19:12:25.742Z</time>
      </trkpt>
      <trkpt lat="47.1381" lon="-1.60552">
        <ele>17</ele>
        <time>2022-08-29T19:12:28.183Z</time>
      </trkpt>
      <trkpt lat="47.13828" lon="-1.60561">
        <ele>17</ele>
        <time>2022-08-29T19:12:30.627Z</time>
      </trkpt>
      <trkpt lat="47.13833" lon="-1.60566">
        <ele>17</ele>
        <time>2022-08-29T19:12:33.072Z</time>
      </trkpt>
      <trkpt lat="47.13843" lon="-1.60578">
        <ele>17</ele>
        <time>2022-08-29T19:12:35.519Z</time>
      </trkpt>
      <trkpt lat="47.13851" lon="-1.60594">
        <ele>18</ele>
        <time>2022-08-29T19:12:37.968Z</time>
      </trkpt>
      <trkpt lat="47.13904" lon="-1.60694">
        <ele>18</ele>
        <time>2022-08-29T19:12:40.431Z</time>
      </trkpt>
      <trkpt lat="47.13913" lon="-1.60706">
        <ele>18</ele>
        <time>2022-08-29T19:12:42.896Z</time>
      </trkpt>
      <trkpt lat="47.1394" lon="-1.60727">
        <ele>18</ele>
        <time>2022-08-29T19:12:45.366Z</time>
      </trkpt>
      <trkpt lat="47.13951" lon="-1.60732">
        <ele>18</ele>
        <time>2022-08-29T19:12:47.838Z</time>
      </trkpt>
      <trkpt lat="47.13961" lon="-1.60735">
        <ele>19</ele>
        <time>2022-08-29T19:12:50.311Z</time>
      </trkpt>
      <trkpt lat="47.14017" lon="-1.60739">
        <ele>19</ele>
        <time>2022-08-29T19:12:52.793Z</time>
      </trkpt>
      <trkpt lat="47.14017" lon="-1.60739">
        <ele>19</ele>
        <time>2022-08-29T19:12:55.275Z</time>
      </trkpt>
      <trkpt lat="47.14039" lon="-1.60742">
        <ele>19</ele>
        <time>2022-08-29T19:12:57.761Z</time>
      </trkpt>
      <trkpt lat="47.14046" lon="-1.6075">
        <ele>19</ele>
        <time>2022-08-29T19:13:00.248Z</time>
      </trkpt>
      <trkpt lat="47.14048" lon="-1.60759">
        <ele>19</ele>
        <time>2022-08-29T19:13:02.736Z</time>
      </trkpt>
      <trkpt lat="47.14081" lon="-1.60752">
        <ele>19</ele>
        <time>2022-08-29T19:13:05.229Z</time>
      </trkpt>
      <trkpt lat="47.14082" lon="-1.60743">
        <ele>19</ele>
        <time>2022-08-29T19:13:07.724Z</time>
      </trkpt>
      <trkpt lat="47.14085" lon="-1.60739">
        <ele>19</ele>
        <time>2022-08-29T19:13:10.219Z</time>
      </trkpt>
      <trkpt lat="47.14091" lon="-1.6074">
        <ele>19</ele>
        <time>2022-08-29T19:13:12.715Z</time>
      </trkpt>
      <trkpt lat="47.14093" lon="-1.60746">
        <ele>19</ele>
        <time>2022-08-29T19:13:15.212Z</time>
      </trkpt>
      <trkpt lat="47.14094" lon="-1.60752">
        <ele>19</ele>
        <time>2022-08-29T19:13:17.709Z</time>
      </trkpt>
      <trkpt lat="47.1409" lon="-1.60759">
        <ele>19</ele>
        <time>2022-08-29T19:13:20.207Z</time>
      </trkpt>
      <trkpt lat="47.14085" lon="-1.6079">
        <ele>19</ele>
        <time>2022-08-29T19:13:22.709Z</time>
      </trkpt>
      <trkpt lat="47.14074" lon="-1.60857">
        <ele>18</ele>
        <time>2022-08-29T19:13:25.219Z</time>
      </trkpt>
      <trkpt lat="47.14077" lon="-1.60879">
        <ele>18</ele>
        <time>2022-08-29T19:13:27.731Z</time>
      </trkpt>
      <trkpt lat="47.141" lon="-1.60942">
        <ele>18</ele>
        <time>2022-08-29T19:13:30.251Z</time>
      </trkpt>
      <trkpt lat="47.14107" lon="-1.60965">
        <ele>17</ele>
        <time>2022-08-29T19:13:32.773Z</time>
      </trkpt>
      <trkpt lat="47.14115" lon="-1.61029">
        <ele>17</ele>
        <time>2022-08-29T19:13:35.303Z</time>
      </trkpt>
      <trkpt lat="47.14119" lon="-1.6106">
        <ele>17</ele>
        <time>2022-08-29T19:13:37.836Z</time>
      </trkpt>
      <trkpt lat="47.14121" lon="-1.61091">
        <ele>16</ele>
        <time>2022-08-29T19:13:40.372Z</time>
      </trkpt>
      <trkpt lat="47.1412" lon="-1.61097">
        <ele>16</ele>
        <time>2022-08-29T19:13:42.909Z</time>
      </trkpt>
      <trkpt lat="47.14109" lon="-1.61122">
        <ele>16</ele>
        <time>2022-08-29T19:13:45.449Z</time>
      </trkpt>
      <trkpt lat="47.14082" lon="-1.61165">
        <ele>16</ele>
        <time>2022-08-29T19:13:47.996Z</time>
      </trkpt>
      <trkpt lat="47.14047" lon="-1.61242">
        <ele>16</ele>
        <time>2022-08-29T19:13:50.553Z</time>
      </trkpt>
      <trkpt lat="47.14032" lon="-1.6129">
        <ele>16</ele>
        <time>2022-08-29T19:13:53.116Z</time>
      </trkpt>
      <trkpt lat="47.14017" lon="-1.61363">
        <ele>15</ele>
        <time>2022-08-29T19:13:55.687Z</time>
      </trkpt>
      <trkpt lat="47.14017" lon="-1.61363">
        <ele>15</ele>
        <time>2022-08-29T19:13:58.258Z</time>
      </trkpt>
      <trkpt lat="47.14001" lon="-1.61387">
        <ele>15</ele>
        <time>2022-08-29T19:14:00.833Z</time>
      </trkpt>
      <trkpt lat="47.13979" lon="-1.61407">
        <ele>15</ele>
        <time>2022-08-29T19:14:03.412Z</time>
      </trkpt>
      <trkpt lat="47.13951" lon="-1.61431">
        <ele>15</ele>
        <time>2022-08-29T19:14:05.996Z</time>
      </trkpt>
      <trkpt lat="47.13914" lon="-1.61483">
        <ele>15</ele>
        <time>2022-08-29T19:14:08.588Z</time>
      </trkpt>
      <trkpt lat="47.13863" lon="-1.61554">
        <ele>15</ele>
        <time>2022-08-29T19:14:11.191Z</time>
      </trkpt>
      <trkpt lat="47.138" lon="-1.61644">
        <ele>15</ele>
        <time>2022-08-29T19:14:13.808Z</time>
      </trkpt>
      <trkpt lat="47.13739" lon="-1.61719">
        <ele>15</ele>
        <time>2022-08-29T19:14:16.438Z</time>
      </trkpt>
      <trkpt lat="47.13692" lon="-1.61755">
        <ele>15</ele>
        <time>2022-08-29T19:14:19.077Z</time>
      </trkpt>
      <trkpt lat="47.13643" lon="-1.61783">
        <ele>15</ele>
        <time>2022-08-29T19:14:21.724Z</time>
      </trkpt>
      <trkpt lat="47.13585" lon="-1.61808">
        <ele>15</ele>
        <time>2022-08-29T19:14:24.381Z</time>
      </trkpt>
      <trkpt lat="47.13568" lon="-1.61807">
        <ele>15</ele>
        <time>2022-08-29T19:14:27.040Z</time>
      </trkpt>
      <trkpt lat="47.13566" lon="-1.61812">
        <ele>14</ele>
        <time>2022-08-29T19:14:29.700Z</time>
      </trkpt>
      <trkpt lat="47.13561" lon="-1.61817">
        <ele>14</ele>
        <time>2022-08-29T19:14:32.361Z</time>
      </trkpt>
      <trkpt lat="47.1349" lon="-1.61851">
        <ele>14</ele>
        <time>2022-08-29T19:14:35.034Z</time>
      </trkpt>
      <trkpt lat="47.13467" lon="-1.61864">
        <ele>14</ele>
        <time>2022-08-29T19:14:37.711Z</time>
      </trkpt>
      <trkpt lat="47.13389" lon="-1.61921">
        <ele>14</ele>
        <time>2022-08-29T19:14:40.402Z</time>
      </trkpt>
      <trkpt lat="47.13275" lon="-1.62012">
        <ele>13</ele>
        <time>2022-08-29T19:14:43.114Z</time>
      </trkpt>
      <trkpt lat="47.13255" lon="-1.62033">
        <ele>13</ele>
        <time>2022-08-29T19:14:45.830Z</time>
      </trkpt>
      <trkpt lat="47.13216" lon="-1.62088">
        <ele>13</ele>
        <time>2022-08-29T19:14:48.554Z</time>
      </trkpt>
      <trkpt lat="47.132" lon="-1.62112">
        <ele>12</ele>
        <time>2022-08-29T19:14:51.282Z</time>
      </trkpt>
      <trkpt lat="47.13112" lon="-1.62296">
        <ele>12</ele>
        <time>2022-08-29T19:14:54.035Z</time>
      </trkpt>
      <trkpt lat="47.13099" lon="-1.62313">
        <ele>11</ele>
        <time>2022-08-29T19:14:56.790Z</time>
      </trkpt>
      <trkpt lat="47.13091" lon="-1.62335">
        <ele>11</ele>
        <time>2022-08-29T19:14:59.548Z</time>
      </trkpt>
      <trkpt lat="47.13054" lon="-1.62427">
        <ele>10</ele>
        <time>2022-08-29T19:15:02.318Z</time>
      </trkpt>
      <trkpt lat="47.13035" lon="-1.62482">
        <ele>10</ele>
        <time>2022-08-29T19:15:05.094Z</time>
      </trkpt>
      <trkpt lat="47.13024" lon="-1.625">
        <ele>10</ele>
        <time>2022-08-29T19:15:07.873Z</time>
      </trkpt>
      <trkpt lat="47.13008" lon="-1.62524">
        <ele>9</ele>
        <time>2022-08-29T19:15:10.656Z</time>
      </trkpt>
      <trkpt lat="47.12994" lon="-1.62535">
        <ele>9</ele>
        <time>2022-08-29T19:15:13.441Z</time>
      </trkpt>
      <trkpt lat="47.1297" lon="-1.62552">
        <ele>9</ele>
        <time>2022-08-29T19:15:16.231Z</time>
      </trkpt>
      <trkpt lat="47.12861" lon="-1.62607">
        <ele>8</ele>
        <time>2022-08-29T19:15:19.039Z</time>
      </trkpt>
      <trkpt lat="47.12832" lon="-1.62626">
        <ele>8</ele>
        <time>2022-08-29T19:15:21.852Z</time>
      </trkpt>
      <trkpt lat="47.12813" lon="-1.62646">
        <ele>8</ele>
        <time>2022-08-29T19:15:24.669Z</time>
      </trkpt>
      <trkpt lat="47.12813" lon="-1.62646">
        <ele>7</ele>
        <time>2022-08-29T19:15:27.486Z</time>
      </trkpt>
      <trkpt lat="47.128" lon="-1.62659">
        <ele>7</ele>
        <time>2022-08-29T19:15:30.305Z</time>
      </trkpt>
      <trkpt lat="47.12759" lon="-1.62707">
        <ele>7</ele>
        <time>2022-08-29T19:15:33.133Z</time>
      </trkpt>
      <trkpt lat="47.12675" lon="-1.62798">
        <ele>7</ele>
        <time>2022-08-29T19:15:35.978Z</time>
      </trkpt>
      <trkpt lat="47.12676" lon="-1.62806">
        <ele>6</ele>
        <time>2022-08-29T19:15:38.823Z</time>
      </trkpt>
      <trkpt lat="47.12672" lon="-1.62818">
        <ele>6</ele>
        <time>2022-08-29T19:15:41.670Z</time>
      </trkpt>
      <trkpt lat="47.12667" lon="-1.62821">
        <ele>6</ele>
        <time>2022-08-29T19:15:44.518Z</time>
      </trkpt>
      <trkpt lat="47.12663" lon="-1.6282">
        <ele>6</ele>
        <time>2022-08-29T19:15:47.366Z</time>
      </trkpt>
      <trkpt lat="47.12657" lon="-1.62814">
        <ele>6</ele>
        <time>2022-08-29T19:15:50.215Z</time>
      </trkpt>
      <trkpt lat="47.12632" lon="-1.62838">
        <ele>6</ele>
        <time>2022-08-29T19:15:53.069Z</time>
      </trkpt>
      <trkpt lat="47.1261" lon="-1.62858">
        <ele>6</ele>
        <time>2022-08-29T19:15:55.927Z</time>
      </trkpt>
      <trkpt lat="47.12449" lon="-1.63004">
        <ele>5</ele>
        <time>2022-08-29T19:15:58.816Z</time>
      </trkpt>
      <trkpt lat="47.12428" lon="-1.63024">
        <ele>5</ele>
        <time>2022-08-29T19:16:01.709Z</time>
      </trkpt>
      <trkpt lat="47.12371" lon="-1.63075">
        <ele>5</ele>
        <time>2022-08-29T19:16:04.612Z</time>
      </trkpt>
      <trkpt lat="47.12343" lon="-1.631">
        <ele>5</ele>
        <time>2022-08-29T19:16:07.521Z</time>
      </trkpt>
      <trkpt lat="47.12339" lon="-1.63108">
        <ele>5</ele>
        <time>2022-08-29T19:16:10.431Z</time>
      </trkpt>
      <trkpt lat="47.12334" lon="-1.63123">
        <ele>5</ele>
        <time>2022-08-29T19:16:13.343Z</time>
      </trkpt>
      <trkpt lat="47.12327" lon="-1.63187">
        <ele>5</ele>
        <time>2022-08-29T19:16:16.262Z</time>
      </trkpt>
      <trkpt lat="47.1231" lon="-1.63244">
        <ele>5</ele>
        <time>2022-08-29T19:16:19.187Z</time>
      </trkpt>
      <trkpt lat="47.12309" lon="-1.63254">
        <ele>5</ele>
        <time>2022-08-29T19:16:22.114Z</time>
      </trkpt>
      <trkpt lat="47.12309" lon="-1.63254">
        <ele>5</ele>
        <time>2022-08-29T19:16:25.041Z</time>
      </trkpt>
      <trkpt lat="47.12301" lon="-1.63319">
        <ele>5</ele>
        <time>2022-08-29T19:16:27.975Z</time>
      </trkpt>
      <trkpt lat="47.12299" lon="-1.6333">
        <ele>5</ele>
        <time>2022-08-29T19:16:30.910Z</time>
      </trkpt>
      <trkpt lat="47.12291" lon="-1.63357">
        <ele>5</ele>
        <time>2022-08-29T19:16:33.848Z</time>
      </trkpt>
      <trkpt lat="47.12296" lon="-1.63373">
        <ele>5</ele>
        <time>2022-08-29T19:16:36.788Z</time>
      </trkpt>
      <trkpt lat="47.12301" lon="-1.63445">
        <ele>5</ele>
        <time>2022-08-29T19:16:39.736Z</time>
      </trkpt>
      <trkpt lat="47.12303" lon="-1.63468">
        <ele>5</ele>
        <time>2022-08-29T19:16:42.687Z</time>
      </trkpt>
      <trkpt lat="47.12304" lon="-1.63488">
        <ele>5</ele>
        <time>2022-08-29T19:16:45.640Z</time>
      </trkpt>
      <trkpt lat="47.12304" lon="-1.63488">
        <ele>5</ele>
        <time>2022-08-29T19:16:48.593Z</time>
      </trkpt>
      <trkpt lat="47.12306" lon="-1.6351">
        <ele>5</ele>
        <time>2022-08-29T19:16:51.548Z</time>
      </trkpt>
      <trkpt lat="47.12309" lon="-1.63547">
        <ele>5</ele>
        <time>2022-08-29T19:16:54.507Z</time>
      </trkpt>
      <trkpt lat="47.12309" lon="-1.6358">
        <ele>5</ele>
        <time>2022-08-29T19:16:57.470Z</time>
      </trkpt>
      <trkpt lat="47.12308" lon="-1.63692">
        <ele>5</ele>
        <time>2022-08-29T19:17:00.445Z</time>
      </trkpt>
      <trkpt lat="47.12308" lon="-1.63703">
        <ele>6</ele>
        <time>2022-08-29T19:17:03.421Z</time>
      </trkpt>
      <trkpt lat="47.12308" lon="-1.6372">
        <ele>6</ele>
        <time>2022-08-29T19:17:06.399Z</time>
      </trkpt>
      <trkpt lat="47.12313" lon="-1.63751">
        <ele>6</ele>
        <time>2022-08-29T19:17:09.381Z</time>
      </trkpt>
      <trkpt lat="47.1233" lon="-1.63802">
        <ele>6</ele>
        <time>2022-08-29T19:17:12.369Z</time>
      </trkpt>
      <trkpt lat="47.12401" lon="-1.64002">
        <ele>6</ele>
        <time>2022-08-29T19:17:15.381Z</time>
      </trkpt>
      <trkpt lat="47.12446" lon="-1.6413">
        <ele>6</ele>
        <time>2022-08-29T19:17:18.409Z</time>
      </trkpt>
      <trkpt lat="47.12518" lon="-1.6433">
        <ele>7</ele>
        <time>2022-08-29T19:17:21.462Z</time>
      </trkpt>
      <trkpt lat="47.12578" lon="-1.64505">
        <ele>7</ele>
        <time>2022-08-29T19:17:24.536Z</time>
      </trkpt>
      <trkpt lat="47.12585" lon="-1.64521">
        <ele>7</ele>
        <time>2022-08-29T19:17:27.612Z</time>
      </trkpt>
      <trkpt lat="47.12596" lon="-1.64559">
        <ele>7</ele>
        <time>2022-08-29T19:17:30.693Z</time>
      </trkpt>
      <trkpt lat="47.12604" lon="-1.64605">
        <ele>7</ele>
        <time>2022-08-29T19:17:33.779Z</time>
      </trkpt>
      <trkpt lat="47.12604" lon="-1.64605">
        <ele>7</ele>
        <time>2022-08-29T19:17:36.865Z</time>
      </trkpt>
      <trkpt lat="47.12612" lon="-1.64667">
        <ele>7</ele>
        <time>2022-08-29T19:17:39.958Z</time>
      </trkpt>
      <trkpt lat="47.12626" lon="-1.64718">
        <ele>8</ele>
        <time>2022-08-29T19:17:43.057Z</time>
      </trkpt>
      <trkpt lat="47.12661" lon="-1.6482">
        <ele>8</ele>
        <time>2022-08-29T19:17:46.168Z</time>
      </trkpt>
      <trkpt lat="47.12673" lon="-1.64846">
        <ele>8</ele>
        <time>2022-08-29T19:17:49.283Z</time>
      </trkpt>
      <trkpt lat="47.12693" lon="-1.64884">
        <ele>8</ele>
        <time>2022-08-29T19:17:52.403Z</time>
      </trkpt>
      <trkpt lat="47.12736" lon="-1.64956">
        <ele>8</ele>
        <time>2022-08-29T19:17:55.534Z</time>
      </trkpt>
      <trkpt lat="47.12786" lon="-1.65036">
        <ele>8</ele>
        <time>2022-08-29T19:17:58.676Z</time>
      </trkpt>
      <trkpt lat="47.12796" lon="-1.65045">
        <ele>9</ele>
        <time>2022-08-29T19:18:01.820Z</time>
      </trkpt>
      <trkpt lat="47.12806" lon="-1.6505">
        <ele>9</ele>
        <time>2022-08-29T19:18:04.966Z</time>
      </trkpt>
      <trkpt lat="47.12844" lon="-1.65057">
        <ele>9</ele>
        <time>2022-08-29T19:18:08.118Z</time>
      </trkpt>
      <trkpt lat="47.12856" lon="-1.65061">
        <ele>9</ele>
        <time>2022-08-29T19:18:11.272Z</time>
      </trkpt>
      <trkpt lat="47.12873" lon="-1.65074">
        <ele>9</ele>
        <time>2022-08-29T19:18:14.429Z</time>
      </trkpt>
      <trkpt lat="47.12879" lon="-1.65084">
        <ele>9</ele>
        <time>2022-08-29T19:18:17.588Z</time>
      </trkpt>
      <trkpt lat="47.1289" lon="-1.65108">
        <ele>10</ele>
        <time>2022-08-29T19:18:20.750Z</time>
      </trkpt>
      <trkpt lat="47.13006" lon="-1.65429">
        <ele>10</ele>
        <time>2022-08-29T19:18:23.952Z</time>
      </trkpt>
      <trkpt lat="47.13006" lon="-1.65429">
        <ele>10</ele>
        <time>2022-08-29T19:18:27.154Z</time>
      </trkpt>
      <trkpt lat="47.13024" lon="-1.6548">
        <ele>10</ele>
        <time>2022-08-29T19:18:30.362Z</time>
      </trkpt>
      <trkpt lat="47.13035" lon="-1.65514">
        <ele>10</ele>
        <time>2022-08-29T19:18:33.574Z</time>
      </trkpt>
      <trkpt lat="47.13047" lon="-1.6557">
        <ele>10</ele>
        <time>2022-08-29T19:18:36.792Z</time>
      </trkpt>
      <trkpt lat="47.1305" lon="-1.65597">
        <ele>10</ele>
        <time>2022-08-29T19:18:40.013Z</time>
      </trkpt>
      <trkpt lat="47.13053" lon="-1.65632">
        <ele>10</ele>
        <time>2022-08-29T19:18:43.238Z</time>
      </trkpt>
      <trkpt lat="47.13065" lon="-1.65915">
        <ele>10</ele>
        <time>2022-08-29T19:18:46.494Z</time>
      </trkpt>
      <trkpt lat="47.1307" lon="-1.66039">
        <ele>10</ele>
        <time>2022-08-29T19:18:49.764Z</time>
      </trkpt>
      <trkpt lat="47.13073" lon="-1.6606">
        <ele>10</ele>
        <time>2022-08-29T19:18:53.036Z</time>
      </trkpt>
      <trkpt lat="47.13083" lon="-1.66103">
        <ele>10</ele>
        <time>2022-08-29T19:18:56.313Z</time>
      </trkpt>
      <trkpt lat="47.13083" lon="-1.66103">
        <ele>10</ele>
        <time>2022-08-29T19:18:59.590Z</time>
      </trkpt>
      <trkpt lat="47.13127" lon="-1.66219">
        <ele>11</ele>
        <time>2022-08-29T19:19:02.882Z</time>
      </trkpt>
      <trkpt lat="47.1313" lon="-1.66225">
        <ele>11</ele>
        <time>2022-08-29T19:19:06.174Z</time>
      </trkpt>
      <trkpt lat="47.13178" lon="-1.66185">
        <ele>11</ele>
        <time>2022-08-29T19:19:09.475Z</time>
      </trkpt>
      <trkpt lat="47.13413" lon="-1.66042">
        <ele>11</ele>
        <time>2022-08-29T19:19:12.817Z</time>
      </trkpt>
      <trkpt lat="47.13413" lon="-1.66042">
        <ele>12</ele>
        <time>2022-08-29T19:19:16.159Z</time>
      </trkpt>
      <trkpt lat="47.13422" lon="-1.66035">
        <ele>12</ele>
        <time>2022-08-29T19:19:19.503Z</time>
      </trkpt>
      <trkpt lat="47.13439" lon="-1.66018">
        <ele>12</ele>
        <time>2022-08-29T19:19:22.850Z</time>
      </trkpt>
      <trkpt lat="47.13451" lon="-1.65997">
        <ele>12</ele>
        <time>2022-08-29T19:19:26.200Z</time>
      </trkpt>
      <trkpt lat="47.13467" lon="-1.6596">
        <ele>12</ele>
        <time>2022-08-29T19:19:29.555Z</time>
      </trkpt>
      <trkpt lat="47.13505" lon="-1.65779">
        <ele>12</ele>
        <time>2022-08-29T19:19:32.930Z</time>
      </trkpt>
      <trkpt lat="47.13536" lon="-1.65677">
        <ele>12</ele>
        <time>2022-08-29T19:19:36.318Z</time>
      </trkpt>
      <trkpt lat="47.13555" lon="-1.65597">
        <ele>11</ele>
        <time>2022-08-29T19:19:39.715Z</time>
      </trkpt>
      <trkpt lat="47.13584" lon="-1.65532">
        <ele>11</ele>
        <time>2022-08-29T19:19:43.120Z</time>
      </trkpt>
      <trkpt lat="47.13609" lon="-1.65491">
        <ele>11</ele>
        <time>2022-08-29T19:19:46.531Z</time>
      </trkpt>
      <trkpt lat="47.13637" lon="-1.65458">
        <ele>11</ele>
        <time>2022-08-29T19:19:49.948Z</time>
      </trkpt>
      <trkpt lat="47.13606" lon="-1.65396">
        <ele>11</ele>
        <time>2022-08-29T19:19:53.373Z</time>
      </trkpt>
      <trkpt lat="47.1359" lon="-1.65371">
        <ele>11</ele>
        <time>2022-08-29T19:19:56.802Z</time>
      </trkpt>
      <trkpt lat="47.13604" lon="-1.65353">
        <ele>11</ele>
        <time>2022-08-29T19:20:00.234Z</time>
      </trkpt>
      <trkpt lat="47.13634" lon="-1.65334">
        <ele>10</ele>
        <time>2022-08-29T19:20:03.671Z</time>
      </trkpt>
      <trkpt lat="47.1364" lon="-1.65326">
        <ele>10</ele>
        <time>2022-08-29T19:20:07.110Z</time>
      </trkpt>
      <trkpt lat="47.13664" lon="-1.65287">
        <ele>10</ele>
        <time>2022-08-29T19:20:10.554Z</time>
      </trkpt>
      <trkpt lat="47.13678" lon="-1.65248">
        <ele>10</ele>
        <time>2022-08-29T19:20:14.003Z</time>
      </trkpt>
      <trkpt lat="47.13691" lon="-1.65199">
        <ele>10</ele>
        <time>2022-08-29T19:20:17.458Z</time>
      </trkpt>
      <trkpt lat="47.13701" lon="-1.65167">
        <ele>10</ele>
        <time>2022-08-29T19:20:20.917Z</time>
      </trkpt>
      <trkpt lat="47.13707" lon="-1.65154">
        <ele>10</ele>
        <time>2022-08-29T19:20:24.377Z</time>
      </trkpt>
      <trkpt lat="47.13725" lon="-1.65124">
        <ele>10</ele>
        <time>2022-08-29T19:20:27.842Z</time>
      </trkpt>
      <trkpt lat="47.1373" lon="-1.65109">
        <ele>10</ele>
        <time>2022-08-29T19:20:31.309Z</time>
      </trkpt>
      <trkpt lat="47.13739" lon="-1.65081">
        <ele>11</ele>
        <time>2022-08-29T19:20:34.779Z</time>
      </trkpt>
      <trkpt lat="47.13743" lon="-1.65056">
        <ele>11</ele>
        <time>2022-08-29T19:20:38.252Z</time>
      </trkpt>
      <trkpt lat="47.13746" lon="-1.64987">
        <ele>11</ele>
        <time>2022-08-29T19:20:41.732Z</time>
      </trkpt>
      <trkpt lat="47.13744" lon="-1.64933">
        <ele>12</ele>
        <time>2022-08-29T19:20:45.218Z</time>
      </trkpt>
      <trkpt lat="47.13744" lon="-1.64902">
        <ele>12</ele>
        <time>2022-08-29T19:20:48.708Z</time>
      </trkpt>
      <trkpt lat="47.13748" lon="-1.64834">
        <ele>12</ele>
        <time>2022-08-29T19:20:52.205Z</time>
      </trkpt>
      <trkpt lat="47.13748" lon="-1.64834">
        <ele>13</ele>
        <time>2022-08-29T19:20:55.702Z</time>
      </trkpt>
      <trkpt lat="47.13751" lon="-1.64748">
        <ele>13</ele>
        <time>2022-08-29T19:20:59.209Z</time>
      </trkpt>
      <trkpt lat="47.13748" lon="-1.64695">
        <ele>14</ele>
        <time>2022-08-29T19:21:02.721Z</time>
      </trkpt>
      <trkpt lat="47.13741" lon="-1.64585">
        <ele>14</ele>
        <time>2022-08-29T19:21:06.246Z</time>
      </trkpt>
      <trkpt lat="47.1382" lon="-1.64595">
        <ele>15</ele>
        <time>2022-08-29T19:21:09.783Z</time>
      </trkpt>
      <trkpt lat="47.13856" lon="-1.64593">
        <ele>15</ele>
        <time>2022-08-29T19:21:13.326Z</time>
      </trkpt>
      <trkpt lat="47.13893" lon="-1.64582">
        <ele>16</ele>
        <time>2022-08-29T19:21:16.875Z</time>
      </trkpt>
      <trkpt lat="47.13933" lon="-1.6455">
        <ele>17</ele>
        <time>2022-08-29T19:21:20.431Z</time>
      </trkpt>
      <trkpt lat="47.13983" lon="-1.64498">
        <ele>17</ele>
        <time>2022-08-29T19:21:23.997Z</time>
      </trkpt>
      <trkpt lat="47.14164" lon="-1.64349">
        <ele>18</ele>
        <time>2022-08-29T19:21:27.596Z</time>
      </trkpt>
      <trkpt lat="47.14232" lon="-1.64275">
        <ele>19</ele>
        <time>2022-08-29T19:21:31.209Z</time>
      </trkpt>
      <trkpt lat="47.14284" lon="-1.6423">
        <ele>19</ele>
        <time>2022-08-29T19:21:34.832Z</time>
      </trkpt>
      <trkpt lat="47.14314" lon="-1.64224">
        <ele>20</ele>
        <time>2022-08-29T19:21:38.459Z</time>
      </trkpt>
      <trkpt lat="47.14366" lon="-1.6422">
        <ele>20</ele>
        <time>2022-08-29T19:21:42.095Z</time>
      </trkpt>
      <trkpt lat="47.14442" lon="-1.6421">
        <ele>21</ele>
        <time>2022-08-29T19:21:45.743Z</time>
      </trkpt>
      <trkpt lat="47.14459" lon="-1.64206">
        <ele>21</ele>
        <time>2022-08-29T19:21:49.394Z</time>
      </trkpt>
      <trkpt lat="47.14477" lon="-1.64196">
        <ele>22</ele>
        <time>2022-08-29T19:21:53.048Z</time>
      </trkpt>
      <trkpt lat="47.14477" lon="-1.64196">
        <ele>22</ele>
        <time>2022-08-29T19:21:56.702Z</time>
      </trkpt>
      <trkpt lat="47.14623" lon="-1.64105">
        <ele>22</ele>
        <time>2022-08-29T19:22:00.381Z</time>
      </trkpt>
      <trkpt lat="47.14761" lon="-1.64043">
        <ele>23</ele>
        <time>2022-08-29T19:22:04.083Z</time>
      </trkpt>
      <trkpt lat="47.14781" lon="-1.64029">
        <ele>23</ele>
        <time>2022-08-29T19:22:07.789Z</time>
      </trkpt>
      <trkpt lat="47.14821" lon="-1.63986">
        <ele>23</ele>
        <time>2022-08-29T19:22:11.503Z</time>
      </trkpt>
      <trkpt lat="47.14832" lon="-1.63981">
        <ele>23</ele>
        <time>2022-08-29T19:22:15.219Z</time>
      </trkpt>
      <trkpt lat="47.14848" lon="-1.63981">
        <ele>23</ele>
        <time>2022-08-29T19:22:18.937Z</time>
      </trkpt>
      <trkpt lat="47.1486" lon="-1.63987">
        <ele>24</ele>
        <time>2022-08-29T19:22:22.657Z</time>
      </trkpt>
      <trkpt lat="47.14871" lon="-1.64005">
        <ele>23</ele>
        <time>2022-08-29T19:22:26.380Z</time>
      </trkpt>
      <trkpt lat="47.14885" lon="-1.6402">
        <ele>23</ele>
        <time>2022-08-29T19:22:30.106Z</time>
      </trkpt>
      <trkpt lat="47.14892" lon="-1.64026">
        <ele>23</ele>
        <time>2022-08-29T19:22:33.833Z</time>
      </trkpt>
      <trkpt lat="47.14893" lon="-1.6402">
        <ele>23</ele>
        <time>2022-08-29T19:22:37.561Z</time>
      </trkpt>
      <trkpt lat="47.14903" lon="-1.64019">
        <ele>23</ele>
        <time>2022-08-29T19:22:41.290Z</time>
      </trkpt>
      <trkpt lat="47.14907" lon="-1.64014">
        <ele>23</ele>
        <time>2022-08-29T19:22:45.020Z</time>
      </trkpt>
      <trkpt lat="47.14955" lon="-1.63926">
        <ele>23</ele>
        <time>2022-08-29T19:22:48.762Z</time>
      </trkpt>
      <trkpt lat="47.15019" lon="-1.63837">
        <ele>22</ele>
        <time>2022-08-29T19:22:52.519Z</time>
      </trkpt>
      <trkpt lat="47.15061" lon="-1.63782">
        <ele>22</ele>
        <time>2022-08-29T19:22:56.284Z</time>
      </trkpt>
      <trkpt lat="47.15102" lon="-1.63734">
        <ele>22</ele>
        <time>2022-08-29T19:23:00.058Z</time>
      </trkpt>
      <trkpt lat="47.15136" lon="-1.63698">
        <ele>22</ele>
        <time>2022-08-29T19:23:03.839Z</time>
      </trkpt>
      <trkpt lat="47.15211" lon="-1.63631">
        <ele>22</ele>
        <time>2022-08-29T19:23:07.634Z</time>
      </trkpt>
      <trkpt lat="47.15362" lon="-1.63491">
        <ele>21</ele>
        <time>2022-08-29T19:23:11.457Z</time>
      </trkpt>
      <trkpt lat="47.15419" lon="-1.63443">
        <ele>21</ele>
        <time>2022-08-29T19:23:15.291Z</time>
      </trkpt>
      <trkpt lat="47.15432" lon="-1.63432">
        <ele>21</ele>
        <time>2022-08-29T19:23:19.127Z</time>
      </trkpt>
      <trkpt lat="47.15438" lon="-1.63425">
        <ele>21</ele>
        <time>2022-08-29T19:23:22.965Z</time>
      </trkpt>
      <trkpt lat="47.15445" lon="-1.63416">
        <ele>21</ele>
        <time>2022-08-29T19:23:26.804Z</time>
      </trkpt>
      <trkpt lat="47.1547" lon="-1.63394">
        <ele>21</ele>
        <time>2022-08-29T19:23:30.648Z</time>
      </trkpt>
      <trkpt lat="47.15483" lon="-1.63387">
        <ele>21</ele>
        <time>2022-08-29T19:23:34.494Z</time>
      </trkpt>
      <trkpt lat="47.15522" lon="-1.63355">
        <ele>21</ele>
        <time>2022-08-29T19:23:38.347Z</time>
      </trkpt>
      <trkpt lat="47.1574" lon="-1.63162">
        <ele>21</ele>
        <time>2022-08-29T19:23:42.241Z</time>
      </trkpt>
      <trkpt lat="47.15748" lon="-1.63148">
        <ele>21</ele>
        <time>2022-08-29T19:23:46.137Z</time>
      </trkpt>
      <trkpt lat="47.15748" lon="-1.63148">
        <ele>21</ele>
        <time>2022-08-29T19:23:50.033Z</time>
      </trkpt>
      <trkpt lat="47.15764" lon="-1.63141">
        <ele>21</ele>
        <time>2022-08-29T19:23:53.932Z</time>
      </trkpt>
      <trkpt lat="47.16125" lon="-1.62822">
        <ele>22</ele>
        <time>2022-08-29T19:23:57.898Z</time>
      </trkpt>
      <trkpt lat="47.16225" lon="-1.62731">
        <ele>22</ele>
        <time>2022-08-29T19:24:01.883Z</time>
      </trkpt>
      <trkpt lat="47.16277" lon="-1.62689">
        <ele>22</ele>
        <time>2022-08-29T19:24:05.877Z</time>
      </trkpt>
      <trkpt lat="47.16276" lon="-1.62673">
        <ele>23</ele>
        <time>2022-08-29T19:24:09.873Z</time>
      </trkpt>
      <trkpt lat="47.16277" lon="-1.62655">
        <ele>23</ele>
        <time>2022-08-29T19:24:13.871Z</time>
      </trkpt>
      <trkpt lat="47.16278" lon="-1.62636">
        <ele>23</ele>
        <time>2022-08-29T19:24:17.871Z</time>
      </trkpt>
      <trkpt lat="47.16285" lon="-1.62605">
        <ele>23</ele>
        <time>2022-08-29T19:24:21.875Z</time>
      </trkpt>
      <trkpt lat="47.16289" lon="-1.62592">
        <ele>24</ele>
        <time>2022-08-29T19:24:25.880Z</time>
      </trkpt>
      <trkpt lat="47.16295" lon="-1.6258">
        <ele>24</ele>
        <time>2022-08-29T19:24:29.887Z</time>
      </trkpt>
      <trkpt lat="47.16306" lon="-1.62571">
        <ele>24</ele>
        <time>2022-08-29T19:24:33.896Z</time>
      </trkpt>
      <trkpt lat="47.16315" lon="-1.62568">
        <ele>24</ele>
        <time>2022-08-29T19:24:37.906Z</time>
      </trkpt>
      <trkpt lat="47.16328" lon="-1.62572">
        <ele>24</ele>
        <time>2022-08-29T19:24:41.918Z</time>
      </trkpt>
      <trkpt lat="47.16344" lon="-1.62579">
        <ele>24</ele>
        <time>2022-08-29T19:24:45.933Z</time>
      </trkpt>
      <trkpt lat="47.16363" lon="-1.62584">
        <ele>24</ele>
        <time>2022-08-29T19:24:49.951Z</time>
      </trkpt>
      <trkpt lat="47.16379" lon="-1.62583">
        <ele>24</ele>
        <time>2022-08-29T19:24:53.972Z</time>
      </trkpt>
      <trkpt lat="47.1639" lon="-1.62579">
        <ele>24</ele>
        <time>2022-08-29T19:24:57.995Z</time>
      </trkpt>
      <trkpt lat="47.16398" lon="-1.62573">
        <ele>24</ele>
        <time>2022-08-29T19:25:02.019Z</time>
      </trkpt>
      <trkpt lat="47.16426" lon="-1.62546">
        <ele>23</ele>
        <time>2022-08-29T19:25:06.048Z</time>
      </trkpt>
      <trkpt lat="47.16434" lon="-1.62541">
        <ele>23</ele>
        <time>2022-08-29T19:25:10.079Z</time>
      </trkpt>
      <trkpt lat="47.16434" lon="-1.62541">
        <ele>23</ele>
        <time>2022-08-29T19:25:14.110Z</time>
      </trkpt>
      <trkpt lat="47.16445" lon="-1.62541">
        <ele>22</ele>
        <time>2022-08-29T19:25:18.142Z</time>
      </trkpt>
      <trkpt lat="47.1652" lon="-1.62563">
        <ele>22</ele>
        <time>2022-08-29T19:25:22.187Z</time>
      </trkpt>
      <trkpt lat="47.16532" lon="-1.62564">
        <ele>21</ele>
        <time>2022-08-29T19:25:26.234Z</time>
      </trkpt>
      <trkpt lat="47.16547" lon="-1.6255">
        <ele>21</ele>
        <time>2022-08-29T19:25:30.283Z</time>
      </trkpt>
      <trkpt lat="47.16559" lon="-1.62534">
        <ele>20</ele>
        <time>2022-08-29T19:25:34.335Z</time>
      </trkpt>
      <trkpt lat="47.16571" lon="-1.62509">
        <ele>20</ele>
        <time>2022-08-29T19:25:38.391Z</time>
      </trkpt>
      <trkpt lat="47.16582" lon="-1.62481">
        <ele>20</ele>
        <time>2022-08-29T19:25:42.450Z</time>
      </trkpt>
      <trkpt lat="47.16609" lon="-1.62422">
        <ele>19</ele>
        <time>2022-08-29T19:25:46.517Z</time>
      </trkpt>
      <trkpt lat="47.16626" lon="-1.62394">
        <ele>19</ele>
        <time>2022-08-29T19:25:50.588Z</time>
      </trkpt>
      <trkpt lat="47.16639" lon="-1.62378">
        <ele>19</ele>
        <time>2022-08-29T19:25:54.662Z</time>
      </trkpt>
      <trkpt lat="47.16656" lon="-1.62364">
        <ele>19</ele>
        <time>2022-08-29T19:25:58.739Z</time>
      </trkpt>
      <trkpt lat="47.16666" lon="-1.62361">
        <ele>18</ele>
        <time>2022-08-29T19:26:02.817Z</time>
      </trkpt>
      <trkpt lat="47.1668" lon="-1.62361">
        <ele>18</ele>
        <time>2022-08-29T19:26:06.898Z</time>
      </trkpt>
      <trkpt lat="47.16695" lon="-1.62368">
        <ele>18</ele>
        <time>2022-08-29T19:26:10.981Z</time>
      </trkpt>
      <trkpt lat="47.16706" lon="-1.62381">
        <ele>18</ele>
        <time>2022-08-29T19:26:15.066Z</time>
      </trkpt>
      <trkpt lat="47.16711" lon="-1.62391">
        <ele>18</ele>
        <time>2022-08-29T19:26:19.153Z</time>
      </trkpt>
      <trkpt lat="47.16728" lon="-1.624">
        <ele>18</ele>
        <time>2022-08-29T19:26:23.243Z</time>
      </trkpt>
      <trkpt lat="47.16735" lon="-1.62377">
        <ele>18</ele>
        <time>2022-08-29T19:26:27.336Z</time>
      </trkpt>
      <trkpt lat="47.16743" lon="-1.62365">
        <ele>18</ele>
        <time>2022-08-29T19:26:31.430Z</time>
      </trkpt>
      <trkpt lat="47.16751" lon="-1.62356">
        <ele>19</ele>
        <time>2022-08-29T19:26:35.526Z</time>
      </trkpt>
      <trkpt lat="47.16758" lon="-1.6235">
        <ele>19</ele>
        <time>2022-08-29T19:26:39.623Z</time>
      </trkpt>
      <trkpt lat="47.16776" lon="-1.6234">
        <ele>19</ele>
        <time>2022-08-29T19:26:43.723Z</time>
      </trkpt>
      <trkpt lat="47.16783" lon="-1.62337">
        <ele>19</ele>
        <time>2022-08-29T19:26:47.824Z</time>
      </trkpt>
      <trkpt lat="47.16822" lon="-1.62311">
        <ele>20</ele>
        <time>2022-08-29T19:26:51.932Z</time>
      </trkpt>
      <trkpt lat="47.16833" lon="-1.62299">
        <ele>20</ele>
        <time>2022-08-29T19:26:56.043Z</time>
      </trkpt>
      <trkpt lat="47.1691" lon="-1.62202">
        <ele>20</ele>
        <time>2022-08-29T19:27:00.170Z</time>
      </trkpt>
      <trkpt lat="47.16913" lon="-1.62197">
        <ele>20</ele>
        <time>2022-08-29T19:27:04.298Z</time>
      </trkpt>
      <trkpt lat="47.16965" lon="-1.62094">
        <ele>20</ele>
        <time>2022-08-29T19:27:08.439Z</time>
      </trkpt>
      <trkpt lat="47.16974" lon="-1.62082">
        <ele>20</ele>
        <time>2022-08-29T19:27:12.582Z</time>
      </trkpt>
      <trkpt lat="47.16986" lon="-1.62057">
        <ele>21</ele>
        <time>2022-08-29T19:27:16.729Z</time>
      </trkpt>
      <trkpt lat="47.16989" lon="-1.62052">
        <ele>21</ele>
        <time>2022-08-29T19:27:20.877Z</time>
      </trkpt>
      <trkpt lat="47.17008" lon="-1.6202">
        <ele>21</ele>
        <time>2022-08-29T19:27:25.029Z</time>
      </trkpt>
      <trkpt lat="47.1703" lon="-1.61987">
        <ele>21</ele>
        <time>2022-08-29T19:27:29.186Z</time>
      </trkpt>
      <trkpt lat="47.17048" lon="-1.61961">
        <ele>21</ele>
        <time>2022-08-29T19:27:33.347Z</time>
      </trkpt>
      <trkpt lat="47.17067" lon="-1.61939">
        <ele>21</ele>
        <time>2022-08-29T19:27:37.512Z</time>
      </trkpt>
      <trkpt lat="47.17067" lon="-1.61939">
        <ele>21</ele>
        <time>2022-08-29T19:27:41.677Z</time>
      </trkpt>
      <trkpt lat="47.17077" lon="-1.61928">
        <ele>21</ele>
        <time>2022-08-29T19:27:45.844Z</time>
      </trkpt>
      <trkpt lat="47.17102" lon="-1.61902">
        <ele>21</ele>
        <time>2022-08-29T19:27:50.016Z</time>
      </trkpt>
      <trkpt lat="47.172" lon="-1.61809">
        <ele>21</ele>
        <time>2022-08-29T19:27:54.207Z</time>
      </trkpt>
      <trkpt lat="47.17216" lon="-1.61794">
        <ele>21</ele>
        <time>2022-08-29T19:27:58.401Z</time>
      </trkpt>
      <trkpt lat="47.17227" lon="-1.61779">
        <ele>21</ele>
        <time>2022-08-29T19:28:02.597Z</time>
      </trkpt>
      <trkpt lat="47.17222" lon="-1.61772">
        <ele>21</ele>
        <time>2022-08-29T19:28:06.794Z</time>
      </trkpt>
      <trkpt lat="47.17222" lon="-1.61763">
        <ele>20</ele>
        <time>2022-08-29T19:28:10.992Z</time>
      </trkpt>
      <trkpt lat="47.17224" lon="-1.61758">
        <ele>20</ele>
        <time>2022-08-29T19:28:15.191Z</time>
      </trkpt>
      <trkpt lat="47.17218" lon="-1.61753">
        <ele>20</ele>
        <time>2022-08-29T19:28:19.391Z</time>
      </trkpt>
      <trkpt lat="47.17178" lon="-1.617">
        <ele>20</ele>
        <time>2022-08-29T19:28:23.599Z</time>
      </trkpt>
      <trkpt lat="47.17152" lon="-1.61674">
        <ele>19</ele>
        <time>2022-08-29T19:28:27.812Z</time>
      </trkpt>
      <trkpt lat="47.17057" lon="-1.61621">
        <ele>19</ele>
        <time>2022-08-29T19:28:32.042Z</time>
      </trkpt>
      <trkpt lat="47.17029" lon="-1.61604">
        <ele>18</ele>
        <time>2022-08-29T19:28:36.276Z</time>
      </trkpt>
      <trkpt lat="47.17021" lon="-1.61597">
        <ele>18</ele>
        <time>2022-08-29T19:28:40.512Z</time>
      </trkpt>
      <trkpt lat="47.17015" lon="-1.61569">
        <ele>17</ele>
        <time>2022-08-29T19:28:44.751Z</time>
      </trkpt>
      <trkpt lat="47.17034" lon="-1.61566">
        <ele>17</ele>
        <time>2022-08-29T19:28:48.993Z</time>
      </trkpt>
      <trkpt lat="47.17075" lon="-1.61577">
        <ele>16</ele>
        <time>2022-08-29T19:28:53.242Z</time>
      </trkpt>
      <trkpt lat="47.17083" lon="-1.61574">
        <ele>16</ele>
        <time>2022-08-29T19:28:57.492Z</time>
      </trkpt>
      <trkpt lat="47.1709" lon="-1.61569">
        <ele>16</ele>
        <time>2022-08-29T19:29:01.744Z</time>
      </trkpt>
      <trkpt lat="47.17119" lon="-1.61526">
        <ele>15</ele>
        <time>2022-08-29T19:29:06.002Z</time>
      </trkpt>
      <trkpt lat="47.1717" lon="-1.61448">
        <ele>15</ele>
        <time>2022-08-29T19:29:10.272Z</time>
      </trkpt>
      <trkpt lat="47.17227" lon="-1.61375">
        <ele>14</ele>
        <time>2022-08-29T19:29:14.554Z</time>
      </trkpt>
      <trkpt lat="47.17283" lon="-1.6131">
        <ele>13</ele>
        <time>2022-08-29T19:29:18.847Z</time>
      </trkpt>
      <trkpt lat="47.17309" lon="-1.61273">
        <ele>13</ele>
        <time>2022-08-29T19:29:23.146Z</time>
      </trkpt>
      <trkpt lat="47.1732" lon="-1.61253">
        <ele>12</ele>
        <time>2022-08-29T19:29:27.448Z</time>
      </trkpt>
      <trkpt lat="47.17333" lon="-1.61222">
        <ele>12</ele>
        <time>2022-08-29T19:29:31.754Z</time>
      </trkpt>
      <trkpt lat="47.17342" lon="-1.61192">
        <ele>11</ele>
        <time>2022-08-29T19:29:36.064Z</time>
      </trkpt>
      <trkpt lat="47.17347" lon="-1.6115">
        <ele>11</ele>
        <time>2022-08-29T19:29:40.378Z</time>
      </trkpt>
      <trkpt lat="47.17352" lon="-1.61064">
        <ele>10</ele>
        <time>2022-08-29T19:29:44.702Z</time>
      </trkpt>
      <trkpt lat="47.1736" lon="-1.61018">
        <ele>10</ele>
        <time>2022-08-29T19:29:49.031Z</time>
      </trkpt>
      <trkpt lat="47.17373" lon="-1.60981">
        <ele>10</ele>
        <time>2022-08-29T19:29:53.364Z</time>
      </trkpt>
      <trkpt lat="47.17376" lon="-1.60957">
        <ele>10</ele>
        <time>2022-08-29T19:29:57.700Z</time>
      </trkpt>
      <trkpt lat="47.17375" lon="-1.60879">
        <ele>10</ele>
        <time>2022-08-29T19:30:02.045Z</time>
      </trkpt>
      <trkpt lat="47.17378" lon="-1.60851">
        <ele>10</ele>
        <time>2022-08-29T19:30:06.393Z</time>
      </trkpt>
      <trkpt lat="47.17384" lon="-1.60824">
        <ele>10</ele>
        <time>2022-08-29T19:30:10.744Z</time>
      </trkpt>
      <trkpt lat="47.17404" lon="-1.60775">
        <ele>11</ele>
        <time>2022-08-29T19:30:15.101Z</time>
      </trkpt>
      <trkpt lat="47.17408" lon="-1.60772">
        <ele>11</ele>
        <time>2022-08-29T19:30:19.459Z</time>
      </trkpt>
      <trkpt lat="47.17412" lon="-1.60776">
        <ele>11</ele>
        <time>2022-08-29T19:30:23.818Z</time>
      </trkpt>
      <trkpt lat="47.17425" lon="-1.60747">
        <ele>11</ele>
        <time>2022-08-29T19:30:28.180Z</time>
      </trkpt>
      <trkpt lat="47.1746" lon="-1.60688">
        <ele>12</ele>
        <time>2022-08-29T19:30:32.551Z</time>
      </trkpt>
      <trkpt lat="47.17496" lon="-1.60625">
        <ele>12</ele>
        <time>2022-08-29T19:30:36.931Z</time>
      </trkpt>
      <trkpt lat="47.17502" lon="-1.60615">
        <ele>12</ele>
        <time>2022-08-29T19:30:41.312Z</time>
      </trkpt>
      <trkpt lat="47.17529" lon="-1.60572">
        <ele>12</ele>
        <time>2022-08-29T19:30:45.700Z</time>
      </trkpt>
      <trkpt lat="47.17622" lon="-1.60422">
        <ele>12</ele>
        <time>2022-08-29T19:30:50.110Z</time>
      </trkpt>
      <trkpt lat="47.17645" lon="-1.60386">
        <ele>12</ele>
        <time>2022-08-29T19:30:54.525Z</time>
      </trkpt>
      <trkpt lat="47.17714" lon="-1.60289">
        <ele>12</ele>
        <time>2022-08-29T19:30:58.956Z</time>
      </trkpt>
      <trkpt lat="47.1773" lon="-1.6025">
        <ele>12</ele>
        <time>2022-08-29T19:31:03.391Z</time>
      </trkpt>
      <trkpt lat="47.1775" lon="-1.60172">
        <ele>12</ele>
        <time>2022-08-29T19:31:07.836Z</time>
      </trkpt>
      <trkpt lat="47.17754" lon="-1.60164">
        <ele>12</ele>
        <time>2022-08-29T19:31:12.282Z</time>
      </trkpt>
      <trkpt lat="47.17762" lon="-1.60154">
        <ele>11</ele>
        <time>2022-08-29T19:31:16.729Z</time>
      </trkpt>
      <trkpt lat="47.17777" lon="-1.60129">
        <ele>11</ele>
        <time>2022-08-29T19:31:21.180Z</time>
      </trkpt>
      <trkpt lat="47.17807" lon="-1.60079">
        <ele>11</ele>
        <time>2022-08-29T19:31:25.638Z</time>
      </trkpt>
      <trkpt lat="47.17807" lon="-1.60079">
        <ele>10</ele>
        <time>2022-08-29T19:31:30.096Z</time>
      </trkpt>
      <trkpt lat="47.17811" lon="-1.6007">
        <ele>10</ele>
        <time>2022-08-29T19:31:34.555Z</time>
      </trkpt>
      <trkpt lat="47.17872" lon="-1.59965">
        <ele>10</ele>
        <time>2022-08-29T19:31:39.029Z</time>
      </trkpt>
      <trkpt lat="47.17883" lon="-1.59943">
        <ele>10</ele>
        <time>2022-08-29T19:31:43.506Z</time>
      </trkpt>
      <trkpt lat="47.17893" lon="-1.59932">
        <ele>10</ele>
        <time>2022-08-29T19:31:47.985Z</time>
      </trkpt>
      <trkpt lat="47.17901" lon="-1.59919">
        <ele>11</ele>
        <time>2022-08-29T19:31:52.466Z</time>
      </trkpt>
      <trkpt lat="47.17903" lon="-1.59911">
        <ele>11</ele>
        <time>2022-08-29T19:31:56.948Z</time>
      </trkpt>
      <trkpt lat="47.17906" lon="-1.59906">
        <ele>11</ele>
        <time>2022-08-29T19:32:01.431Z</time>
      </trkpt>
      <trkpt lat="47.17914" lon="-1.59901">
        <ele>11</ele>
        <time>2022-08-29T19:32:05.915Z</time>
      </trkpt>
      <trkpt lat="47.17925" lon="-1.59892">
        <ele>12</ele>
        <time>2022-08-29T19:32:10.401Z</time>
      </trkpt>
      <trkpt lat="47.17931" lon="-1.59883">
        <ele>12</ele>
        <time>2022-08-29T19:32:14.889Z</time>
      </trkpt>
      <trkpt lat="47.17946" lon="-1.59801">
        <ele>13</ele>
        <time>2022-08-29T19:32:19.386Z</time>
      </trkpt>
      <trkpt lat="47.17955" lon="-1.59741">
        <ele>13</ele>
        <time>2022-08-29T19:32:23.890Z</time>
      </trkpt>
      <trkpt lat="47.17952" lon="-1.59736">
        <ele>14</ele>
        <time>2022-08-29T19:32:28.394Z</time>
      </trkpt>
      <trkpt lat="47.17951" lon="-1.59732">
        <ele>15</ele>
        <time>2022-08-29T19:32:32.899Z</time>
      </trkpt>
      <trkpt lat="47.17952" lon="-1.59728">
        <ele>15</ele>
        <time>2022-08-29T19:32:37.404Z</time>
      </trkpt>
      <trkpt lat="47.17954" lon="-1.59721">
        <ele>16</ele>
        <time>2022-08-29T19:32:41.910Z</time>
      </trkpt>
      <trkpt lat="47.1796" lon="-1.59719">
        <ele>17</ele>
        <time>2022-08-29T19:32:46.417Z</time>
      </trkpt>
      <trkpt lat="47.17965" lon="-1.59712">
        <ele>17</ele>
        <time>2022-08-29T19:32:50.925Z</time>
      </trkpt>
      <trkpt lat="47.17971" lon="-1.59699">
        <ele>18</ele>
        <time>2022-08-29T19:32:55.435Z</time>
      </trkpt>
      <trkpt lat="47.17982" lon="-1.59667">
        <ele>19</ele>
        <time>2022-08-29T19:32:59.949Z</time>
      </trkpt>
      <trkpt lat="47.18" lon="-1.59596">
        <ele>19</ele>
        <time>2022-08-29T19:33:04.471Z</time>
      </trkpt>
      <trkpt lat="47.18012" lon="-1.5955">
        <ele>20</ele>
        <time>2022-08-29T19:33:08.999Z</time>
      </trkpt>
      <trkpt lat="47.18013" lon="-1.59546">
        <ele>20</ele>
        <time>2022-08-29T19:33:13.527Z</time>
      </trkpt>
      <trkpt lat="47.18025" lon="-1.59506">
        <ele>21</ele>
        <time>2022-08-29T19:33:18.060Z</time>
      </trkpt>
      <trkpt lat="47.18029" lon="-1.59488">
        <ele>21</ele>
        <time>2022-08-29T19:33:22.595Z</time>
      </trkpt>
      <trkpt lat="47.18038" lon="-1.59457">
        <ele>22</ele>
        <time>2022-08-29T19:33:27.134Z</time>
      </trkpt>
      <trkpt lat="47.18052" lon="-1.59428">
        <ele>22</ele>
        <time>2022-08-29T19:33:31.676Z</time>
      </trkpt>
      <trkpt lat="47.18047" lon="-1.59419">
        <ele>22</ele>
        <time>2022-08-29T19:33:36.220Z</time>
      </trkpt>
      <trkpt lat="47.18049" lon="-1.59408">
        <ele>22</ele>
        <time>2022-08-29T19:33:40.765Z</time>
      </trkpt>
      <trkpt lat="47.18055" lon="-1.594">
        <ele>23</ele>
        <time>2022-08-29T19:33:45.311Z</time>
      </trkpt>
      <trkpt lat="47.18061" lon="-1.594">
        <ele>23</ele>
        <time>2022-08-29T19:33:49.858Z</time>
      </trkpt>
      <trkpt lat="47.18067" lon="-1.59407">
        <ele>23</ele>
        <time>2022-08-29T19:33:54.406Z</time>
      </trkpt>
      <trkpt lat="47.18093" lon="-1.59385">
        <ele>23</ele>
        <time>2022-08-29T19:33:58.959Z</time>
      </trkpt>
      <trkpt lat="47.18093" lon="-1.59385">
        <ele>23</ele>
        <time>2022-08-29T19:34:03.512Z</time>
      </trkpt>
      <trkpt lat="47.18163" lon="-1.59318">
        <ele>23</ele>
        <time>2022-08-29T19:34:08.079Z</time>
      </trkpt>
      <trkpt lat="47.18229" lon="-1.5925">
        <ele>23</ele>
        <time>2022-08-29T19:34:12.658Z</time>
      </trkpt>
      <trkpt lat="47.18191" lon="-1.5922">
        <ele>23</ele>
        <time>2022-08-29T19:34:17.244Z</time>
      </trkpt>
      <trkpt lat="47.18173" lon="-1.59202">
        <ele>23</ele>
        <time>2022-08-29T19:34:21.834Z</time>
      </trkpt>
      <trkpt lat="47.18163" lon="-1.59187">
        <ele>23</ele>
        <time>2022-08-29T19:34:26.426Z</time>
      </trkpt>
      <trkpt lat="47.18153" lon="-1.59167">
        <ele>22</ele>
        <time>2022-08-29T19:34:31.021Z</time>
      </trkpt>
      <trkpt lat="47.18144" lon="-1.59157">
        <ele>22</ele>
        <time>2022-08-29T19:34:35.618Z</time>
      </trkpt>
      <trkpt lat="47.18134" lon="-1.59157">
        <ele>22</ele>
        <time>2022-08-29T19:34:40.216Z</time>
      </trkpt>
      <trkpt lat="47.18095" lon="-1.59181">
        <ele>22</ele>
        <time>2022-08-29T19:34:44.821Z</time>
      </trkpt>
      <trkpt lat="47.1809" lon="-1.59169">
        <ele>22</ele>
        <time>2022-08-29T19:34:49.427Z</time>
      </trkpt>
      <trkpt lat="47.18084" lon="-1.59134">
        <ele>22</ele>
        <time>2022-08-29T19:34:54.037Z</time>
      </trkpt>
      <trkpt lat="47.1806" lon="-1.5898">
        <ele>22</ele>
        <time>2022-08-29T19:34:58.665Z</time>
      </trkpt>
      <trkpt lat="47.1805" lon="-1.58939">
        <ele>22</ele>
        <time>2022-08-29T19:35:03.297Z</time>
      </trkpt>
      <trkpt lat="47.18042" lon="-1.58932">
        <ele>22</ele>
        <time>2022-08-29T19:35:07.931Z</time>
      </trkpt>
      <trkpt lat="47.18008" lon="-1.58903">
        <ele>22</ele>
        <time>2022-08-29T19:35:12.571Z</time>
      </trkpt>
      <trkpt lat="47.17986" lon="-1.58884">
        <ele>23</ele>
        <time>2022-08-29T19:35:17.215Z</time>
      </trkpt>
      <trkpt lat="47.17987" lon="-1.58879">
        <ele>23</ele>
        <time>2022-08-29T19:35:21.860Z</time>
      </trkpt>
      <trkpt lat="47.17986" lon="-1.58873">
        <ele>23</ele>
        <time>2022-08-29T19:35:26.505Z</time>
      </trkpt>
      <trkpt lat="47.17982" lon="-1.58866">
        <ele>23</ele>
        <time>2022-08-29T19:35:31.151Z</time>
      </trkpt>
      <trkpt lat="47.17977" lon="-1.58865">
        <ele>23</ele>
        <time>2022-08-29T19:35:35.798Z</time>
      </trkpt>
      <trkpt lat="47.17982" lon="-1.58851">
        <ele>23</ele>
        <time>2022-08-29T19:35:40.447Z</time>
      </trkpt>
      <trkpt lat="47.18023" lon="-1.5876">
        <ele>23</ele>
        <time>2022-08-29T19:35:45.108Z</time>
      </trkpt>
      <trkpt lat="47.18043" lon="-1.58713">
        <ele>23</ele>
        <time>2022-08-29T19:35:49.775Z</time>
      </trkpt>
      <trkpt lat="47.18043" lon="-1.58713">
        <ele>23</ele>
        <time>2022-08-29T19:35:54.442Z</time>
      </trkpt>
      <trkpt lat="47.18047" lon="-1.58706">
        <ele>23</ele>
        <time>2022-08-29T19:35:59.110Z</time>
      </trkpt>
      <trkpt lat="47.18048" lon="-1.58698">
        <ele>23</ele>
        <time>2022-08-29T19:36:03.779Z</time>
      </trkpt>
      <trkpt lat="47.1805" lon="-1.58692">
        <ele>23</ele>
        <time>2022-08-29T19:36:08.449Z</time>
      </trkpt>
      <trkpt lat="47.18055" lon="-1.58689">
        <ele>23</ele>
        <time>2022-08-29T19:36:13.120Z</time>
      </trkpt>
      <trkpt lat="47.18057" lon="-1.58679">
        <ele>23</ele>
        <time>2022-08-29T19:36:17.792Z</time>
      </trkpt>
      <trkpt lat="47.18083" lon="-1.58604">
        <ele>23</ele>
        <time>2022-08-29T19:36:22.473Z</time>
      </trkpt>
      <trkpt lat="47.18083" lon="-1.58604">
        <ele>23</ele>
        <time>2022-08-29T19:36:27.154Z</time>
      </trkpt>
      <trkpt lat="47.18094" lon="-1.58572">
        <ele>23</ele>
        <time>2022-08-29T19:36:31.839Z</time>
      </trkpt>
      <trkpt lat="47.18096" lon="-1.58559">
        <ele>23</ele>
        <time>2022-08-29T19:36:36.525Z</time>
      </trkpt>
      <trkpt lat="47.18095" lon="-1.58555">
        <ele>23</ele>
        <time>2022-08-29T19:36:41.212Z</time>
      </trkpt>
      <trkpt lat="47.18095" lon="-1.58549">
        <ele>23</ele>
        <time>2022-08-29T19:36:45.899Z</time>
      </trkpt>
      <trkpt lat="47.18081" lon="-1.58538">
        <ele>23</ele>
        <time>2022-08-29T19:36:50.589Z</time>
      </trkpt>
      <trkpt lat="47.18081" lon="-1.58538">
        <ele>23</ele>
        <time>2022-08-29T19:36:55.279Z</time>
      </trkpt>
      <trkpt lat="47.18058" lon="-1.58517">
        <ele>23</ele>
        <time>2022-08-29T19:36:59.973Z</time>
      </trkpt>
      <trkpt lat="47.18037" lon="-1.58489">
        <ele>23</ele>
        <time>2022-08-29T19:37:04.672Z</time>
      </trkpt>
      <trkpt lat="47.18037" lon="-1.58489">
        <ele>24</ele>
        <time>2022-08-29T19:37:09.371Z</time>
      </trkpt>
      <trkpt lat="47.18022" lon="-1.5846">
        <ele>24</ele>
        <time>2022-08-29T19:37:14.074Z</time>
      </trkpt>
      <trkpt lat="47.1798" lon="-1.58346">
        <ele>24</ele>
        <time>2022-08-29T19:37:18.791Z</time>
      </trkpt>
      <trkpt lat="47.17985" lon="-1.5834">
        <ele>24</ele>
        <time>2022-08-29T19:37:23.509Z</time>
      </trkpt>
      <trkpt lat="47.17992" lon="-1.58325">
        <ele>24</ele>
        <time>2022-08-29T19:37:28.229Z</time>
      </trkpt>
      <trkpt lat="47.18008" lon="-1.58275">
        <ele>24</ele>
        <time>2022-08-29T19:37:32.955Z</time>
      </trkpt>
      <trkpt lat="47.18022" lon="-1.58225">
        <ele>24</ele>
        <time>2022-08-29T19:37:37.687Z</time>
      </trkpt>
      <trkpt lat="47.18024" lon="-1.58218">
        <ele>24</ele>
        <time>2022-08-29T19:37:42.420Z</time>
      </trkpt>
      <trkpt lat="47.18037" lon="-1.58147">
        <ele>24</ele>
        <time>2022-08-29T19:37:47.161Z</time>
      </trkpt>
      <trkpt lat="47.18048" lon="-1.58084">
        <ele>24</ele>
        <time>2022-08-29T19:37:51.909Z</time>
      </trkpt>
      <trkpt lat="47.18052" lon="-1.58056">
        <ele>24</ele>
        <time>2022-08-29T19:37:56.660Z</time>
      </trkpt>
      <trkpt lat="47.18052" lon="-1.58056">
        <ele>25</ele>
        <time>2022-08-29T19:38:01.411Z</time>
      </trkpt>
      <trkpt lat="47.1806" lon="-1.5801">
        <ele>25</ele>
        <time>2022-08-29T19:38:06.167Z</time>
      </trkpt>
      <trkpt lat="47.18064" lon="-1.58002">
        <ele>25</ele>
        <time>2022-08-29T19:38:10.924Z</time>
      </trkpt>
      <trkpt lat="47.18069" lon="-1.57998">
        <ele>25</ele>
        <time>2022-08-29T19:38:15.682Z</time>
      </trkpt>
      <trkpt lat="47.18069" lon="-1.57998">
        <ele>25</ele>
        <time>2022-08-29T19:38:20.440Z</time>
      </trkpt>
      <trkpt lat="47.18115" lon="-1.57993">
        <ele>25</ele>
        <time>2022-08-29T19:38:25.206Z</time>
      </trkpt>
      <trkpt lat="47.18132" lon="-1.57991">
        <ele>24</ele>
        <time>2022-08-29T19:38:29.974Z</time>
      </trkpt>
      <trkpt lat="47.18134" lon="-1.57981">
        <ele>24</ele>
        <time>2022-08-29T19:38:34.743Z</time>
      </trkpt>
      <trkpt lat="47.18141" lon="-1.57949">
        <ele>24</ele>
        <time>2022-08-29T19:38:39.516Z</time>
      </trkpt>
      <trkpt lat="47.18154" lon="-1.57947">
        <ele>24</ele>
        <time>2022-08-29T19:38:44.291Z</time>
      </trkpt>
      <trkpt lat="47.18152" lon="-1.57893">
        <ele>24</ele>
        <time>2022-08-29T19:38:49.072Z</time>
      </trkpt>
      <trkpt lat="47.18153" lon="-1.57886">
        <ele>24</ele>
        <time>2022-08-29T19:38:53.854Z</time>
      </trkpt>
      <trkpt lat="47.18157" lon="-1.57878">
        <ele>24</ele>
        <time>2022-08-29T19:38:58.637Z</time>
      </trkpt>
      <trkpt lat="47.18166" lon="-1.57825">
        <ele>24</ele>
        <time>2022-08-29T19:39:03.426Z</time>
      </trkpt>
      <trkpt lat="47.18166" lon="-1.57825">
        <ele>24</ele>
        <time>2022-08-29T19:39:08.215Z</time>
      </trkpt>
      <trkpt lat="47.18171" lon="-1.57793">
        <ele>24</ele>
        <time>2022-08-29T19:39:13.007Z</time>
      </trkpt>
      <trkpt lat="47.18185" lon="-1.57745">
        <ele>24</ele>
        <time>2022-08-29T19:39:17.805Z</time>
      </trkpt>
      <trkpt lat="47.18191" lon="-1.57716">
        <ele>23</ele>
        <time>2022-08-29T19:39:22.606Z</time>
      </trkpt>
      <trkpt lat="47.18193" lon="-1.57699">
        <ele>23</ele>
        <time>2022-08-29T19:39:27.409Z</time>
      </trkpt>
      <trkpt lat="47.18196" lon="-1.57645">
        <ele>23</ele>
        <time>2022-08-29T19:39:32.218Z</time>
      </trkpt>
      <trkpt lat="47.182" lon="-1.57613">
        <ele>23</ele>
        <time>2022-08-29T19:39:37.031Z</time>
      </trkpt>
      <trkpt lat="47.18201" lon="-1.57602">
        <ele>23</ele>
        <time>2022-08-29T19:39:41.845Z</time>
      </trkpt>
      <trkpt lat="47.18196" lon="-1.57586">
        <ele>23</ele>
        <time>2022-08-29T19:39:46.661Z</time>
      </trkpt>
      <trkpt lat="47.18196" lon="-1.57586">
        <ele>23</ele>
        <time>2022-08-29T19:39:51.477Z</time>
      </trkpt>
      <trkpt lat="47.18193" lon="-1.57578">
        <ele>22</ele>
        <time>2022-08-29T19:39:56.294Z</time>
      </trkpt>
      <trkpt lat="47.18193" lon="-1.57578">
        <ele>22</ele>
        <time>2022-08-29T19:40:01.111Z</time>
      </trkpt>
      <trkpt lat="47.18197" lon="-1.57566">
        <ele>22</ele>
        <time>2022-08-29T19:40:05.929Z</time>
      </trkpt>
      <trkpt lat="47.182" lon="-1.5753">
        <ele>22</ele>
        <time>2022-08-29T19:40:10.751Z</time>
      </trkpt>
      <trkpt lat="47.18203" lon="-1.57513">
        <ele>22</ele>
        <time>2022-08-29T19:40:15.575Z</time>
      </trkpt>
      <trkpt lat="47.18206" lon="-1.57479">
        <ele>21</ele>
        <time>2022-08-29T19:40:20.403Z</time>
      </trkpt>
      <trkpt lat="47.18204" lon="-1.57354">
        <ele>21</ele>
        <time>2022-08-29T19:40:25.245Z</time>
      </trkpt>
      <trkpt lat="47.18204" lon="-1.57354">
        <ele>21</ele>
        <time>2022-08-29T19:40:30.087Z</time>
      </trkpt>
      <trkpt lat="47.18204" lon="-1.57317">
        <ele>21</ele>
        <time>2022-08-29T19:40:34.933Z</time>
      </trkpt>
      <trkpt lat="47.18204" lon="-1.57293">
        <ele>21</ele>
        <time>2022-08-29T19:40:39.781Z</time>
      </trkpt>
      <trkpt lat="47.18211" lon="-1.57211">
        <ele>21</ele>
        <time>2022-08-29T19:40:44.638Z</time>
      </trkpt>
      <trkpt lat="47.18214" lon="-1.57192">
        <ele>21</ele>
        <time>2022-08-29T19:40:49.497Z</time>
      </trkpt>
      <trkpt lat="47.18208" lon="-1.57191">
        <ele>21</ele>
        <time>2022-08-29T19:40:54.357Z</time>
      </trkpt>
      <trkpt lat="47.18067" lon="-1.57144">
        <ele>21</ele>
        <time>2022-08-29T19:40:59.240Z</time>
      </trkpt>
      <trkpt lat="47.18056" lon="-1.5714">
        <ele>22</ele>
        <time>2022-08-29T19:41:04.125Z</time>
      </trkpt>
      <trkpt lat="47.18027" lon="-1.57127">
        <ele>22</ele>
        <time>2022-08-29T19:41:09.015Z</time>
      </trkpt>
      <trkpt lat="47.17957" lon="-1.57086">
        <ele>22</ele>
        <time>2022-08-29T19:41:13.917Z</time>
      </trkpt>
      <trkpt lat="47.17957" lon="-1.57086">
        <ele>22</ele>
        <time>2022-08-29T19:41:18.819Z</time>
      </trkpt>
      <trkpt lat="47.17954" lon="-1.57084">
        <ele>23</ele>
        <time>2022-08-29T19:41:23.722Z</time>
      </trkpt>
      <trkpt lat="47.17868" lon="-1.57026">
        <ele>23</ele>
        <time>2022-08-29T19:41:28.640Z</time>
      </trkpt>
      <trkpt lat="47.17855" lon="-1.57014">
        <ele>23</ele>
        <time>2022-08-29T19:41:33.560Z</time>
      </trkpt>
      <trkpt lat="47.17874" lon="-1.56956">
        <ele>24</ele>
        <time>2022-08-29T19:41:38.487Z</time>
      </trkpt>
      <trkpt lat="47.17879" lon="-1.56926">
        <ele>24</ele>
        <time>2022-08-29T19:41:43.418Z</time>
      </trkpt>
      <trkpt lat="47.17888" lon="-1.56805">
        <ele>25</ele>
        <time>2022-08-29T19:41:48.362Z</time>
      </trkpt>
      <trkpt lat="47.1789" lon="-1.56799">
        <ele>25</ele>
        <time>2022-08-29T19:41:53.307Z</time>
      </trkpt>
      <trkpt lat="47.17888" lon="-1.56794">
        <ele>25</ele>
        <time>2022-08-29T19:41:58.252Z</time>
      </trkpt>
      <trkpt lat="47.17887" lon="-1.56784">
        <ele>26</ele>
        <time>2022-08-29T19:42:03.198Z</time>
      </trkpt>
      <trkpt lat="47.1789" lon="-1.56775">
        <ele>26</ele>
        <time>2022-08-29T19:42:08.146Z</time>
      </trkpt>
      <trkpt lat="47.17896" lon="-1.56771">
        <ele>27</ele>
        <time>2022-08-29T19:42:13.095Z</time>
      </trkpt>
      <trkpt lat="47.17881" lon="-1.56689">
        <ele>27</ele>
        <time>2022-08-29T19:42:18.053Z</time>
      </trkpt>
      <trkpt lat="47.17881" lon="-1.56689">
        <ele>28</ele>
        <time>2022-08-29T19:42:23.011Z</time>
      </trkpt>
      <trkpt lat="47.17877" lon="-1.56661">
        <ele>28</ele>
        <time>2022-08-29T19:42:27.972Z</time>
      </trkpt>
      <trkpt lat="47.17877" lon="-1.56661">
        <ele>29</ele>
        <time>2022-08-29T19:42:32.933Z</time>
      </trkpt>
      <trkpt lat="47.17878" lon="-1.56642">
        <ele>29</ele>
        <time>2022-08-29T19:42:37.896Z</time>
      </trkpt>
      <trkpt lat="47.17881" lon="-1.56625">
        <ele>30</ele>
        <time>2022-08-29T19:42:42.861Z</time>
      </trkpt>
      <trkpt lat="47.17896" lon="-1.5657">
        <ele>30</ele>
        <time>2022-08-29T19:42:47.832Z</time>
      </trkpt>
      <trkpt lat="47.17888" lon="-1.56558">
        <ele>31</ele>
        <time>2022-08-29T19:42:52.805Z</time>
      </trkpt>
      <trkpt lat="47.17879" lon="-1.5655">
        <ele>31</ele>
        <time>2022-08-29T19:42:57.780Z</time>
      </trkpt>
      <trkpt lat="47.17837" lon="-1.56525">
        <ele>32</ele>
        <time>2022-08-29T19:43:02.762Z</time>
      </trkpt>
      <trkpt lat="47.17796" lon="-1.56503">
        <ele>33</ele>
        <time>2022-08-29T19:43:07.751Z</time>
      </trkpt>
      <trkpt lat="47.17735" lon="-1.56465">
        <ele>33</ele>
        <time>2022-08-29T19:43:12.751Z</time>
      </trkpt>
      <trkpt lat="47.1771" lon="-1.56441">
        <ele>34</ele>
        <time>2022-08-29T19:43:17.756Z</time>
      </trkpt>
      <trkpt lat="47.17705" lon="-1.56431">
        <ele>34</ele>
        <time>2022-08-29T19:43:22.762Z</time>
      </trkpt>
      <trkpt lat="47.1769" lon="-1.56433">
        <ele>34</ele>
        <time>2022-08-29T19:43:27.770Z</time>
      </trkpt>
      <trkpt lat="47.17649" lon="-1.56395">
        <ele>35</ele>
        <time>2022-08-29T19:43:32.786Z</time>
      </trkpt>
      <trkpt lat="47.17645" lon="-1.5639">
        <ele>35</ele>
        <time>2022-08-29T19:43:37.803Z</time>
      </trkpt>
      <trkpt lat="47.17697" lon="-1.56275">
        <ele>35</ele>
        <time>2022-08-29T19:43:42.835Z</time>
      </trkpt>
      <trkpt lat="47.177" lon="-1.56267">
        <ele>35</ele>
        <time>2022-08-29T19:43:47.868Z</time>
      </trkpt>
      <trkpt lat="47.17703" lon="-1.5626">
        <ele>35</ele>
        <time>2022-08-29T19:43:52.902Z</time>
      </trkpt>
      <trkpt lat="47.17706" lon="-1.56253">
        <ele>35</ele>
        <time>2022-08-29T19:43:57.937Z</time>
      </trkpt>
      <trkpt lat="47.17703" lon="-1.56247">
        <ele>35</ele>
        <time>2022-08-29T19:44:02.973Z</time>
      </trkpt>
      <trkpt lat="47.17703" lon="-1.5624">
        <ele>35</ele>
        <time>2022-08-29T19:44:08.010Z</time>
      </trkpt>
      <trkpt lat="47.17704" lon="-1.56235">
        <ele>35</ele>
        <time>2022-08-29T19:44:13.047Z</time>
      </trkpt>
      <trkpt lat="47.17712" lon="-1.56231">
        <ele>35</ele>
        <time>2022-08-29T19:44:18.085Z</time>
      </trkpt>
      <trkpt lat="47.17714" lon="-1.56232">
        <ele>35</ele>
        <time>2022-08-29T19:44:23.124Z</time>
      </trkpt>
      <trkpt lat="47.17737" lon="-1.56181">
        <ele>35</ele>
        <time>2022-08-29T19:44:28.170Z</time>
      </trkpt>
      <trkpt lat="47.17746" lon="-1.56162">
        <ele>34</ele>
        <time>2022-08-29T19:44:33.218Z</time>
      </trkpt>
      <trkpt lat="47.17765" lon="-1.56129">
        <ele>34</ele>
        <time>2022-08-29T19:44:38.271Z</time>
      </trkpt>
      <trkpt lat="47.17777" lon="-1.56111">
        <ele>34</ele>
        <time>2022-08-29T19:44:43.326Z</time>
      </trkpt>
      <trkpt lat="47.17834" lon="-1.56033">
        <ele>33</ele>
        <time>2022-08-29T19:44:48.394Z</time>
      </trkpt>
      <trkpt lat="47.17834" lon="-1.56033">
        <ele>33</ele>
        <time>2022-08-29T19:44:53.462Z</time>
      </trkpt>
      <trkpt lat="47.17866" lon="-1.5599">
        <ele>33</ele>
        <time>2022-08-29T19:44:58.537Z</time>
      </trkpt>
      <trkpt lat="47.1788" lon="-1.55972">
        <ele>33</ele>
        <time>2022-08-29T19:45:03.615Z</time>
      </trkpt>
      <trkpt lat="47.17884" lon="-1.55963">
        <ele>33</ele>
        <time>2022-08-29T19:45:08.694Z</time>
      </trkpt>
      <trkpt lat="47.17888" lon="-1.55952">
        <ele>33</ele>
        <time>2022-08-29T19:45:13.774Z</time>
      </trkpt>
      <trkpt lat="47.17879" lon="-1.55943">
        <ele>33</ele>
        <time>2022-08-29T19:45:18.856Z</time>
      </trkpt>
      <trkpt lat="47.17822" lon="-1.55919">
        <ele>33</ele>
        <time>2022-08-29T19:45:23.948Z</time>
      </trkpt>
      <trkpt lat="47.17822" lon="-1.55919">
        <ele>33</ele>
        <time>2022-08-29T19:45:29.040Z</time>
      </trkpt>
      <trkpt lat="47.17792" lon="-1.55906">
        <ele>33</ele>
        <time>2022-08-29T19:45:34.137Z</time>
      </trkpt>
      <trkpt lat="47.17769" lon="-1.55894">
        <ele>33</ele>
        <time>2022-08-29T19:45:39.238Z</time>
      </trkpt>
      <trkpt lat="47.17769" lon="-1.55894">
        <ele>33</ele>
        <time>2022-08-29T19:45:44.339Z</time>
      </trkpt>
      <trkpt lat="47.17722" lon="-1.5585">
        <ele>34</ele>
        <time>2022-08-29T19:45:49.448Z</time>
      </trkpt>
      <trkpt lat="47.17643" lon="-1.55772">
        <ele>34</ele>
        <time>2022-08-29T19:45:54.573Z</time>
      </trkpt>
      <trkpt lat="47.17597" lon="-1.5573">
        <ele>34</ele>
        <time>2022-08-29T19:45:59.706Z</time>
      </trkpt>
      <trkpt lat="47.1757" lon="-1.55708">
        <ele>34</ele>
        <time>2022-08-29T19:46:04.844Z</time>
      </trkpt>
      <trkpt lat="47.17567" lon="-1.55711">
        <ele>35</ele>
        <time>2022-08-29T19:46:09.983Z</time>
      </trkpt>
      <trkpt lat="47.17561" lon="-1.55712">
        <ele>35</ele>
        <time>2022-08-29T19:46:15.123Z</time>
      </trkpt>
      <trkpt lat="47.17555" lon="-1.55709">
        <ele>35</ele>
        <time>2022-08-29T19:46:20.264Z</time>
      </trkpt>
      <trkpt lat="47.17554" lon="-1.55703">
        <ele>35</ele>
        <time>2022-08-29T19:46:25.405Z</time>
      </trkpt>
      <trkpt lat="47.17556" lon="-1.55697">
        <ele>36</ele>
        <time>2022-08-29T19:46:30.547Z</time>
      </trkpt>
      <trkpt lat="47.17474" lon="-1.55625">
        <ele>36</ele>
        <time>2022-08-29T19:46:35.705Z</time>
      </trkpt>
      <trkpt lat="47.17473" lon="-1.55625">
        <ele>37</ele>
        <time>2022-08-29T19:46:40.863Z</time>
      </trkpt>
      <trkpt lat="47.17458" lon="-1.55611">
        <ele>37</ele>
        <time>2022-08-29T19:46:46.023Z</time>
      </trkpt>
      <trkpt lat="47.17409" lon="-1.55567">
        <ele>37</ele>
        <time>2022-08-29T19:46:51.193Z</time>
      </trkpt>
      <trkpt lat="47.17409" lon="-1.55567">
        <ele>38</ele>
        <time>2022-08-29T19:46:56.363Z</time>
      </trkpt>
      <trkpt lat="47.17365" lon="-1.55526">
        <ele>38</ele>
        <time>2022-08-29T19:47:01.541Z</time>
      </trkpt>
      <trkpt lat="47.17315" lon="-1.55483">
        <ele>38</ele>
        <time>2022-08-29T19:47:06.728Z</time>
      </trkpt>
      <trkpt lat="47.17309" lon="-1.55488">
        <ele>38</ele>
        <time>2022-08-29T19:47:11.916Z</time>
      </trkpt>
      <trkpt lat="47.17304" lon="-1.55487">
        <ele>38</ele>
        <time>2022-08-29T19:47:17.105Z</time>
      </trkpt>
      <trkpt lat="47.17301" lon="-1.55478">
        <ele>38</ele>
        <time>2022-08-29T19:47:22.295Z</time>
      </trkpt>
      <trkpt lat="47.17302" lon="-1.55469">
        <ele>39</ele>
        <time>2022-08-29T19:47:27.486Z</time>
      </trkpt>
      <trkpt lat="47.17281" lon="-1.55449">
        <ele>39</ele>
        <time>2022-08-29T19:47:32.681Z</time>
      </trkpt>
      <trkpt lat="47.17265" lon="-1.55437">
        <ele>39</ele>
        <time>2022-08-29T19:47:37.879Z</time>
      </trkpt>
      <trkpt lat="47.17265" lon="-1.55437">
        <ele>39</ele>
        <time>2022-08-29T19:47:43.077Z</time>
      </trkpt>
      <trkpt lat="47.17227" lon="-1.554">
        <ele>39</ele>
        <time>2022-08-29T19:47:48.283Z</time>
      </trkpt>
      <trkpt lat="47.1721" lon="-1.55389">
        <ele>39</ele>
        <time>2022-08-29T19:47:53.492Z</time>
      </trkpt>
      <trkpt lat="47.17189" lon="-1.55364">
        <ele>39</ele>
        <time>2022-08-29T19:47:58.705Z</time>
      </trkpt>
      <trkpt lat="47.17172" lon="-1.5535">
        <ele>39</ele>
        <time>2022-08-29T19:48:03.921Z</time>
      </trkpt>
      <trkpt lat="47.17136" lon="-1.55316">
        <ele>39</ele>
        <time>2022-08-29T19:48:09.144Z</time>
      </trkpt>
      <trkpt lat="47.17136" lon="-1.55316">
        <ele>39</ele>
        <time>2022-08-29T19:48:14.367Z</time>
      </trkpt>
      <trkpt lat="47.171" lon="-1.55282">
        <ele>39</ele>
        <time>2022-08-29T19:48:19.597Z</time>
      </trkpt>
      <trkpt lat="47.17078" lon="-1.55262">
        <ele>39</ele>
        <time>2022-08-29T19:48:24.831Z</time>
      </trkpt>
      <trkpt lat="47.1706" lon="-1.55245">
        <ele>39</ele>
        <time>2022-08-29T19:48:30.068Z</time>
      </trkpt>
      <trkpt lat="47.16931" lon="-1.55125">
        <ele>39</ele>
        <time>2022-08-29T19:48:35.330Z</time>
      </trkpt>
      <trkpt lat="47.16932" lon="-1.55115">
        <ele>39</ele>
        <time>2022-08-29T19:48:40.593Z</time>
      </trkpt>
      <trkpt lat="47.16928" lon="-1.55109">
        <ele>39</ele>
        <time>2022-08-29T19:48:45.857Z</time>
      </trkpt>
      <trkpt lat="47.16924" lon="-1.55106">
        <ele>38</ele>
        <time>2022-08-29T19:48:51.121Z</time>
      </trkpt>
      <trkpt lat="47.16919" lon="-1.55108">
        <ele>38</ele>
        <time>2022-08-29T19:48:56.386Z</time>
      </trkpt>
      <trkpt lat="47.16911" lon="-1.551">
        <ele>38</ele>
        <time>2022-08-29T19:49:01.653Z</time>
      </trkpt>
      <trkpt lat="47.16901" lon="-1.55097">
        <ele>38</ele>
        <time>2022-08-29T19:49:06.922Z</time>
      </trkpt>
      <trkpt lat="47.16901" lon="-1.55097">
        <ele>38</ele>
        <time>2022-08-29T19:49:12.191Z</time>
      </trkpt>
      <trkpt lat="47.16893" lon="-1.55096">
        <ele>38</ele>
        <time>2022-08-29T19:49:17.461Z</time>
      </trkpt>
      <trkpt lat="47.16837" lon="-1.55061">
        <ele>37</ele>
        <time>2022-08-29T19:49:22.740Z</time>
      </trkpt>
      <trkpt lat="47.16837" lon="-1.55061">
        <ele>37</ele>
        <time>2022-08-29T19:49:28.019Z</time>
      </trkpt>
      <trkpt lat="47.16802" lon="-1.5503">
        <ele>37</ele>
        <time>2022-08-29T19:49:33.305Z</time>
      </trkpt>
      <trkpt lat="47.16783" lon="-1.5501">
        <ele>37</ele>
        <time>2022-08-29T19:49:38.595Z</time>
      </trkpt>
      <trkpt lat="47.16773" lon="-1.55002">
        <ele>36</ele>
        <time>2022-08-29T19:49:43.887Z</time>
      </trkpt>
      <trkpt lat="47.16747" lon="-1.54978">
        <ele>36</ele>
        <time>2022-08-29T19:49:49.183Z</time>
      </trkpt>
      <trkpt lat="47.16741" lon="-1.54972">
        <ele>36</ele>
        <time>2022-08-29T19:49:54.481Z</time>
      </trkpt>
      <trkpt lat="47.16741" lon="-1.54972">
        <ele>36</ele>
        <time>2022-08-29T19:49:59.779Z</time>
      </trkpt>
      <trkpt lat="47.16724" lon="-1.54958">
        <ele>36</ele>
        <time>2022-08-29T19:50:05.080Z</time>
      </trkpt>
      <trkpt lat="47.16724" lon="-1.54958">
        <ele>36</ele>
        <time>2022-08-29T19:50:10.381Z</time>
      </trkpt>
      <trkpt lat="47.16694" lon="-1.54945">
        <ele>35</ele>
        <time>2022-08-29T19:50:15.687Z</time>
      </trkpt>
      <trkpt lat="47.16661" lon="-1.54939">
        <ele>35</ele>
        <time>2022-08-29T19:50:20.998Z</time>
      </trkpt>
      <trkpt lat="47.16655" lon="-1.5494">
        <ele>35</ele>
        <time>2022-08-29T19:50:26.310Z</time>
      </trkpt>
      <trkpt lat="47.16655" lon="-1.54947">
        <ele>35</ele>
        <time>2022-08-29T19:50:31.623Z</time>
      </trkpt>
      <trkpt lat="47.16655" lon="-1.54947">
        <ele>34</ele>
        <time>2022-08-29T19:50:36.936Z</time>
      </trkpt>
      <trkpt lat="47.16652" lon="-1.54952">
        <ele>34</ele>
        <time>2022-08-29T19:50:42.250Z</time>
      </trkpt>
      <trkpt lat="47.16647" lon="-1.54957">
        <ele>34</ele>
        <time>2022-08-29T19:50:47.564Z</time>
      </trkpt>
      <trkpt lat="47.16644" lon="-1.54957">
        <ele>34</ele>
        <time>2022-08-29T19:50:52.879Z</time>
      </trkpt>
      <trkpt lat="47.1664" lon="-1.54954">
        <ele>34</ele>
        <time>2022-08-29T19:50:58.195Z</time>
      </trkpt>
      <trkpt lat="47.16638" lon="-1.5495">
        <ele>34</ele>
        <time>2022-08-29T19:51:03.511Z</time>
      </trkpt>
      <trkpt lat="47.16637" lon="-1.54946">
        <ele>34</ele>
        <time>2022-08-29T19:51:08.828Z</time>
      </trkpt>
      <trkpt lat="47.16636" lon="-1.54942">
        <ele>33</ele>
        <time>2022-08-29T19:51:14.145Z</time>
      </trkpt>
      <trkpt lat="47.16638" lon="-1.54934">
        <ele>33</ele>
        <time>2022-08-29T19:51:19.463Z</time>
      </trkpt>
      <trkpt lat="47.1664" lon="-1.54932">
        <ele>33</ele>
        <time>2022-08-29T19:51:24.782Z</time>
      </trkpt>
      <trkpt lat="47.1664" lon="-1.5492">
        <ele>33</ele>
        <time>2022-08-29T19:51:30.102Z</time>
      </trkpt>
      <trkpt lat="47.16638" lon="-1.54894">
        <ele>33</ele>
        <time>2022-08-29T19:51:35.425Z</time>
      </trkpt>
      <trkpt lat="47.16621" lon="-1.54802">
        <ele>33</ele>
        <time>2022-08-29T19:51:40.758Z</time>
      </trkpt>
      <trkpt lat="47.16621" lon="-1.54802">
        <ele>33</ele>
        <time>2022-08-29T19:51:46.091Z</time>
      </trkpt>
      <trkpt lat="47.16615" lon="-1.54802">
        <ele>33</ele>
        <time>2022-08-29T19:51:51.425Z</time>
      </trkpt>
      <trkpt lat="47.16611" lon="-1.54798">
        <ele>34</ele>
        <time>2022-08-29T19:51:56.760Z</time>
      </trkpt>
      <trkpt lat="47.16609" lon="-1.54793">
        <ele>34</ele>
        <time>2022-08-29T19:52:02.095Z</time>
      </trkpt>
      <trkpt lat="47.16609" lon="-1.54792">
        <ele>34</ele>
        <time>2022-08-29T19:52:07.430Z</time>
      </trkpt>
      <trkpt lat="47.16608" lon="-1.54788">
        <ele>34</ele>
        <time>2022-08-29T19:52:12.766Z</time>
      </trkpt>
      <trkpt lat="47.16611" lon="-1.54777">
        <ele>34</ele>
        <time>2022-08-29T19:52:18.103Z</time>
      </trkpt>
      <trkpt lat="47.16615" lon="-1.54773">
        <ele>34</ele>
        <time>2022-08-29T19:52:23.441Z</time>
      </trkpt>
      <trkpt lat="47.16612" lon="-1.5476">
        <ele>34</ele>
        <time>2022-08-29T19:52:28.781Z</time>
      </trkpt>
      <trkpt lat="47.16604" lon="-1.54719">
        <ele>34</ele>
        <time>2022-08-29T19:52:34.125Z</time>
      </trkpt>
      <trkpt lat="47.16579" lon="-1.54575">
        <ele>35</ele>
        <time>2022-08-29T19:52:39.486Z</time>
      </trkpt>
      <trkpt lat="47.16578" lon="-1.54556">
        <ele>35</ele>
        <time>2022-08-29T19:52:44.849Z</time>
      </trkpt>
      <trkpt lat="47.16578" lon="-1.54544">
        <ele>35</ele>
        <time>2022-08-29T19:52:50.213Z</time>
      </trkpt>
      <trkpt lat="47.16578" lon="-1.54526">
        <ele>35</ele>
        <time>2022-08-29T19:52:55.579Z</time>
      </trkpt>
      <trkpt lat="47.16579" lon="-1.54518">
        <ele>36</ele>
        <time>2022-08-29T19:53:00.946Z</time>
      </trkpt>
      <trkpt lat="47.16581" lon="-1.54489">
        <ele>36</ele>
        <time>2022-08-29T19:53:06.316Z</time>
      </trkpt>
      <trkpt lat="47.16581" lon="-1.54489">
        <ele>36</ele>
        <time>2022-08-29T19:53:11.686Z</time>
      </trkpt>
      <trkpt lat="47.16587" lon="-1.54421">
        <ele>37</ele>
        <time>2022-08-29T19:53:17.063Z</time>
      </trkpt>
      <trkpt lat="47.16591" lon="-1.54374">
        <ele>37</ele>
        <time>2022-08-29T19:53:22.446Z</time>
      </trkpt>
      <trkpt lat="47.16592" lon="-1.54369">
        <ele>37</ele>
        <time>2022-08-29T19:53:27.829Z</time>
      </trkpt>
      <trkpt lat="47.16596" lon="-1.54311">
        <ele>37</ele>
        <time>2022-08-29T19:53:33.219Z</time>
      </trkpt>
      <trkpt lat="47.16597" lon="-1.54301">
        <ele>38</ele>
        <time>2022-08-29T19:53:38.610Z</time>
      </trkpt>
      <trkpt lat="47.16594" lon="-1.54299">
        <ele>38</ele>
        <time>2022-08-29T19:53:44.001Z</time>
      </trkpt>
      <trkpt lat="47.16587" lon="-1.5429">
        <ele>38</ele>
        <time>2022-08-29T19:53:49.394Z</time>
      </trkpt>
      <trkpt lat="47.16585" lon="-1.54279">
        <ele>38</ele>
        <time>2022-08-29T19:53:54.788Z</time>
      </trkpt>
      <trkpt lat="47.16586" lon="-1.54272">
        <ele>38</ele>
        <time>2022-08-29T19:54:00.183Z</time>
      </trkpt>
      <trkpt lat="47.16574" lon="-1.54267">
        <ele>37</ele>
        <time>2022-08-29T19:54:05.580Z</time>
      </trkpt>
      <trkpt lat="47.16551" lon="-1.5426">
        <ele>37</ele>
        <time>2022-08-29T19:54:10.980Z</time>
      </trkpt>
      <trkpt lat="47.16498" lon="-1.54252">
        <ele>37</ele>
        <time>2022-08-29T19:54:16.389Z</time>
      </trkpt>
      <trkpt lat="47.16404" lon="-1.54242">
        <ele>37</ele>
        <time>2022-08-29T19:54:21.813Z</time>
      </trkpt>
      <trkpt lat="47.16322" lon="-1.54231">
        <ele>36</ele>
        <time>2022-08-29T19:54:27.250Z</time>
      </trkpt>
      <trkpt lat="47.16234" lon="-1.54225">
        <ele>36</ele>
        <time>2022-08-29T19:54:32.701Z</time>
      </trkpt>
      <trkpt lat="47.16234" lon="-1.54225">
        <ele>36</ele>
        <time>2022-08-29T19:54:38.152Z</time>
      </trkpt>
      <trkpt lat="47.16214" lon="-1.54224">
        <ele>36</ele>
        <time>2022-08-29T19:54:43.607Z</time>
      </trkpt>
      <trkpt lat="47.16206" lon="-1.54223">
        <ele>35</ele>
        <time>2022-08-29T19:54:49.063Z</time>
      </trkpt>
      <trkpt lat="47.162" lon="-1.54228">
        <ele>35</ele>
        <time>2022-08-29T19:54:54.520Z</time>
      </trkpt>
      <trkpt lat="47.16188" lon="-1.54229">
        <ele>35</ele>
        <time>2022-08-29T19:54:59.979Z</time>
      </trkpt>
      <trkpt lat="47.16167" lon="-1.54231">
        <ele>34</ele>
        <time>2022-08-29T19:55:05.441Z</time>
      </trkpt>
      <trkpt lat="47.16139" lon="-1.54231">
        <ele>34</ele>
        <time>2022-08-29T19:55:10.908Z</time>
      </trkpt>
      <trkpt lat="47.16123" lon="-1.54238">
        <ele>34</ele>
        <time>2022-08-29T19:55:16.377Z</time>
      </trkpt>
      <trkpt lat="47.16116" lon="-1.54245">
        <ele>33</ele>
        <time>2022-08-29T19:55:21.848Z</time>
      </trkpt>
      <trkpt lat="47.16109" lon="-1.5425">
        <ele>33</ele>
        <time>2022-08-29T19:55:27.320Z</time>
      </trkpt>
      <trkpt lat="47.16099" lon="-1.5425">
        <ele>33</ele>
        <time>2022-08-29T19:55:32.794Z</time>
      </trkpt>
      <trkpt lat="47.16094" lon="-1.54246">
        <ele>33</ele>
        <time>2022-08-29T19:55:38.269Z</time>
      </trkpt>
      <trkpt lat="47.16088" lon="-1.5424">
        <ele>32</ele>
        <time>2022-08-29T19:55:43.745Z</time>
      </trkpt>
      <trkpt lat="47.16088" lon="-1.5424">
        <ele>32</ele>
        <time>2022-08-29T19:55:49.221Z</time>
      </trkpt>
      <trkpt lat="47.16085" lon="-1.5423">
        <ele>32</ele>
        <time>2022-08-29T19:55:54.698Z</time>
      </trkpt>
      <trkpt lat="47.16083" lon="-1.54221">
        <ele>32</ele>
        <time>2022-08-29T19:56:00.176Z</time>
      </trkpt>
      <trkpt lat="47.16076" lon="-1.54214">
        <ele>32</ele>
        <time>2022-08-29T19:56:05.655Z</time>
      </trkpt>
      <trkpt lat="47.16064" lon="-1.5421">
        <ele>32</ele>
        <time>2022-08-29T19:56:11.136Z</time>
      </trkpt>
      <trkpt lat="47.15998" lon="-1.54201">
        <ele>33</ele>
        <time>2022-08-29T19:56:16.628Z</time>
      </trkpt>
      <trkpt lat="47.15982" lon="-1.54202">
        <ele>33</ele>
        <time>2022-08-29T19:56:22.122Z</time>
      </trkpt>
      <trkpt lat="47.15977" lon="-1.54203">
        <ele>33</ele>
        <time>2022-08-29T19:56:27.617Z</time>
      </trkpt>
      <trkpt lat="47.15971" lon="-1.54207">
        <ele>33</ele>
        <time>2022-08-29T19:56:33.113Z</time>
      </trkpt>
      <trkpt lat="47.15966" lon="-1.54212">
        <ele>33</ele>
        <time>2022-08-29T19:56:38.610Z</time>
      </trkpt>
      <trkpt lat="47.1596" lon="-1.54215">
        <ele>33</ele>
        <time>2022-08-29T19:56:44.108Z</time>
      </trkpt>
      <trkpt lat="47.15951" lon="-1.54212">
        <ele>33</ele>
        <time>2022-08-29T19:56:49.608Z</time>
      </trkpt>
      <trkpt lat="47.15948" lon="-1.54208">
        <ele>34</ele>
        <time>2022-08-29T19:56:55.108Z</time>
      </trkpt>
      <trkpt lat="47.15945" lon="-1.54196">
        <ele>34</ele>
        <time>2022-08-29T19:57:00.610Z</time>
      </trkpt>
      <trkpt lat="47.1593" lon="-1.54192">
        <ele>34</ele>
        <time>2022-08-29T19:57:06.114Z</time>
      </trkpt>
      <trkpt lat="47.15882" lon="-1.54186">
        <ele>34</ele>
        <time>2022-08-29T19:57:11.626Z</time>
      </trkpt>
      <trkpt lat="47.15882" lon="-1.54186">
        <ele>34</ele>
        <time>2022-08-29T19:57:17.138Z</time>
      </trkpt>
      <trkpt lat="47.15868" lon="-1.54186">
        <ele>34</ele>
        <time>2022-08-29T19:57:22.652Z</time>
      </trkpt>
      <trkpt lat="47.1586" lon="-1.54192">
        <ele>34</ele>
        <time>2022-08-29T19:57:28.168Z</time>
      </trkpt>
      <trkpt lat="47.15855" lon="-1.54199">
        <ele>34</ele>
        <time>2022-08-29T19:57:33.685Z</time>
      </trkpt>
      <trkpt lat="47.15847" lon="-1.542">
        <ele>34</ele>
        <time>2022-08-29T19:57:39.203Z</time>
      </trkpt>
      <trkpt lat="47.1584" lon="-1.54196">
        <ele>34</ele>
        <time>2022-08-29T19:57:44.722Z</time>
      </trkpt>
      <trkpt lat="47.15835" lon="-1.54187">
        <ele>34</ele>
        <time>2022-08-29T19:57:50.242Z</time>
      </trkpt>
      <trkpt lat="47.15824" lon="-1.54182">
        <ele>33</ele>
        <time>2022-08-29T19:57:55.764Z</time>
      </trkpt>
      <trkpt lat="47.158" lon="-1.54178">
        <ele>33</ele>
        <time>2022-08-29T19:58:01.290Z</time>
      </trkpt>
      <trkpt lat="47.1577" lon="-1.54181">
        <ele>33</ele>
        <time>2022-08-29T19:58:06.821Z</time>
      </trkpt>
      <trkpt lat="47.15759" lon="-1.54181">
        <ele>32</ele>
        <time>2022-08-29T19:58:12.354Z</time>
      </trkpt>
      <trkpt lat="47.15752" lon="-1.54194">
        <ele>32</ele>
        <time>2022-08-29T19:58:17.889Z</time>
      </trkpt>
      <trkpt lat="47.15744" lon="-1.54199">
        <ele>32</ele>
        <time>2022-08-29T19:58:23.425Z</time>
      </trkpt>
      <trkpt lat="47.15739" lon="-1.542">
        <ele>31</ele>
        <time>2022-08-29T19:58:28.962Z</time>
      </trkpt>
      <trkpt lat="47.15728" lon="-1.54196">
        <ele>31</ele>
        <time>2022-08-29T19:58:34.501Z</time>
      </trkpt>
      <trkpt lat="47.15719" lon="-1.54184">
        <ele>30</ele>
        <time>2022-08-29T19:58:40.041Z</time>
      </trkpt>
      <trkpt lat="47.15716" lon="-1.54173">
        <ele>30</ele>
        <time>2022-08-29T19:58:45.583Z</time>
      </trkpt>
      <trkpt lat="47.15717" lon="-1.54157">
        <ele>30</ele>
        <time>2022-08-29T19:58:51.126Z</time>
      </trkpt>
      <trkpt lat="47.15724" lon="-1.54141">
        <ele>29</ele>
        <time>2022-08-29T19:58:56.672Z</time>
      </trkpt>
      <trkpt lat="47.15724" lon="-1.54125">
        <ele>29</ele>
        <time>2022-08-29T19:59:02.219Z</time>
      </trkpt>
      <trkpt lat="47.15719" lon="-1.54112">
        <ele>29</ele>
        <time>2022-08-29T19:59:07.768Z</time>
      </trkpt>
      <trkpt lat="47.15715" lon="-1.54096">
        <ele>28</ele>
        <time>2022-08-29T19:59:13.319Z</time>
      </trkpt>
      <trkpt lat="47.15708" lon="-1.54067">
        <ele>28</ele>
        <time>2022-08-29T19:59:18.873Z</time>
      </trkpt>
      <trkpt lat="47.15708" lon="-1.54067">
        <ele>28</ele>
        <time>2022-08-29T19:59:24.427Z</time>
      </trkpt>
      <trkpt lat="47.15704" lon="-1.54048">
        <ele>28</ele>
        <time>2022-08-29T19:59:29.983Z</time>
      </trkpt>
      <trkpt lat="47.15687" lon="-1.53992">
        <ele>27</ele>
        <time>2022-08-29T19:59:35.546Z</time>
      </trkpt>
      <trkpt lat="47.15672" lon="-1.53928">
        <ele>27</ele>
        <time>2022-08-29T19:59:41.116Z</time>
      </trkpt>
      <trkpt lat="47.15669" lon="-1.53909">
        <ele>27</ele>
        <time>2022-08-29T19:59:46.688Z</time>
      </trkpt>
      <trkpt lat="47.15664" lon="-1.53894">
        <ele>26</ele>
        <time>2022-08-29T19:59:52.262Z</time>
      </trkpt>
      <trkpt lat="47.15659" lon="-1.5389">
        <ele>26</ele>
        <time>2022-08-29T19:59:57.837Z</time>
      </trkpt>
      <trkpt lat="47.15656" lon="-1.53877">
        <ele>26</ele>
        <time>2022-08-29T20:00:03.414Z</time>
      </trkpt>
      <trkpt lat="47.15658" lon="-1.53867">
        <ele>26</ele>
        <time>2022-08-29T20:00:08.992Z</time>
      </trkpt>
      <trkpt lat="47.15652" lon="-1.53855">
        <ele>26</ele>
        <time>2022-08-29T20:00:14.571Z</time>
      </trkpt>
      <trkpt lat="47.15628" lon="-1.53818">
        <ele>25</ele>
        <time>2022-08-29T20:00:20.156Z</time>
      </trkpt>
      <trkpt lat="47.15613" lon="-1.53801">
        <ele>25</ele>
        <time>2022-08-29T20:00:25.744Z</time>
      </trkpt>
      <trkpt lat="47.15593" lon="-1.53787">
        <ele>25</ele>
        <time>2022-08-29T20:00:31.336Z</time>
      </trkpt>
      <trkpt lat="47.15563" lon="-1.53762">
        <ele>25</ele>
        <time>2022-08-29T20:00:36.933Z</time>
      </trkpt>
      <trkpt lat="47.15547" lon="-1.53753">
        <ele>25</ele>
        <time>2022-08-29T20:00:42.533Z</time>
      </trkpt>
      <trkpt lat="47.15543" lon="-1.53755">
        <ele>25</ele>
        <time>2022-08-29T20:00:48.133Z</time>
      </trkpt>
      <trkpt lat="47.1554" lon="-1.53757">
        <ele>26</ele>
        <time>2022-08-29T20:00:53.734Z</time>
      </trkpt>
      <trkpt lat="47.15536" lon="-1.53758">
        <ele>26</ele>
        <time>2022-08-29T20:00:59.336Z</time>
      </trkpt>
      <trkpt lat="47.15531" lon="-1.53755">
        <ele>26</ele>
        <time>2022-08-29T20:01:04.939Z</time>
      </trkpt>
      <trkpt lat="47.15528" lon="-1.53752">
        <ele>26</ele>
        <time>2022-08-29T20:01:10.542Z</time>
      </trkpt>
      <trkpt lat="47.15524" lon="-1.53742">
        <ele>26</ele>
        <time>2022-08-29T20:01:16.146Z</time>
      </trkpt>
      <trkpt lat="47.15492" lon="-1.53706">
        <ele>27</ele>
        <time>2022-08-29T20:01:21.757Z</time>
      </trkpt>
      <trkpt lat="47.15482" lon="-1.53698">
        <ele>27</ele>
        <time>2022-08-29T20:01:27.370Z</time>
      </trkpt>
      <trkpt lat="47.15482" lon="-1.53698">
        <ele>27</ele>
        <time>2022-08-29T20:01:32.983Z</time>
      </trkpt>
      <trkpt lat="47.15355" lon="-1.53603">
        <ele>27</ele>
        <time>2022-08-29T20:01:38.619Z</time>
      </trkpt>
      <trkpt lat="47.15323" lon="-1.53579">
        <ele>28</ele>
        <time>2022-08-29T20:01:44.260Z</time>
      </trkpt>
      <trkpt lat="47.15323" lon="-1.53579">
        <ele>28</ele>
        <time>2022-08-29T20:01:49.901Z</time>
      </trkpt>
      <trkpt lat="47.15296" lon="-1.53558">
        <ele>29</ele>
        <time>2022-08-29T20:01:55.547Z</time>
      </trkpt>
      <trkpt lat="47.15272" lon="-1.53541">
        <ele>29</ele>
        <time>2022-08-29T20:02:01.197Z</time>
      </trkpt>
      <trkpt lat="47.15272" lon="-1.53541">
        <ele>29</ele>
        <time>2022-08-29T20:02:06.847Z</time>
      </trkpt>
      <trkpt lat="47.15264" lon="-1.53536">
        <ele>30</ele>
        <time>2022-08-29T20:02:12.499Z</time>
      </trkpt>
      <trkpt lat="47.15248" lon="-1.53532">
        <ele>30</ele>
        <time>2022-08-29T20:02:18.153Z</time>
      </trkpt>
      <trkpt lat="47.15239" lon="-1.5353">
        <ele>30</ele>
        <time>2022-08-29T20:02:23.809Z</time>
      </trkpt>
      <trkpt lat="47.15237" lon="-1.53534">
        <ele>30</ele>
        <time>2022-08-29T20:02:29.466Z</time>
      </trkpt>
      <trkpt lat="47.15228" lon="-1.53539">
        <ele>31</ele>
        <time>2022-08-29T20:02:35.124Z</time>
      </trkpt>
      <trkpt lat="47.15225" lon="-1.53539">
        <ele>31</ele>
        <time>2022-08-29T20:02:40.783Z</time>
      </trkpt>
      <trkpt lat="47.1522" lon="-1.53537">
        <ele>31</ele>
        <time>2022-08-29T20:02:46.442Z</time>
      </trkpt>
      <trkpt lat="47.15215" lon="-1.5353">
        <ele>31</ele>
        <time>2022-08-29T20:02:52.102Z</time>
      </trkpt>
      <trkpt lat="47.15213" lon="-1.53519">
        <ele>31</ele>
        <time>2022-08-29T20:02:57.764Z</time>
      </trkpt>
      <trkpt lat="47.15213" lon="-1.53514">
        <ele>31</ele>
        <time>2022-08-29T20:03:03.426Z</time>
      </trkpt>
      <trkpt lat="47.15205" lon="-1.53502">
        <ele>31</ele>
        <time>2022-08-29T20:03:09.090Z</time>
      </trkpt>
      <trkpt lat="47.15203" lon="-1.53499">
        <ele>31</ele>
        <time>2022-08-29T20:03:14.755Z</time>
      </trkpt>
      <trkpt lat="47.1519" lon="-1.53485">
        <ele>31</ele>
        <time>2022-08-29T20:03:20.422Z</time>
      </trkpt>
      <trkpt lat="47.15108" lon="-1.53421">
        <ele>31</ele>
        <time>2022-08-29T20:03:26.104Z</time>
      </trkpt>
      <trkpt lat="47.15102" lon="-1.53418">
        <ele>31</ele>
        <time>2022-08-29T20:03:31.787Z</time>
      </trkpt>
      <trkpt lat="47.15098" lon="-1.53409">
        <ele>31</ele>
        <time>2022-08-29T20:03:37.471Z</time>
      </trkpt>
      <trkpt lat="47.15048" lon="-1.53371">
        <ele>32</ele>
        <time>2022-08-29T20:03:43.164Z</time>
      </trkpt>
      <trkpt lat="47.15048" lon="-1.53371">
        <ele>32</ele>
        <time>2022-08-29T20:03:48.857Z</time>
      </trkpt>
      <trkpt lat="47.15017" lon="-1.53348">
        <ele>32</ele>
        <time>2022-08-29T20:03:54.556Z</time>
      </trkpt>
      <trkpt lat="47.14994" lon="-1.53342">
        <ele>32</ele>
        <time>2022-08-29T20:04:00.258Z</time>
      </trkpt>
      <trkpt lat="47.14987" lon="-1.5334">
        <ele>32</ele>
        <time>2022-08-29T20:04:05.962Z</time>
      </trkpt>
      <trkpt lat="47.14984" lon="-1.53333">
        <ele>31</ele>
        <time>2022-08-29T20:04:11.666Z</time>
      </trkpt>
      <trkpt lat="47.14984" lon="-1.53326">
        <ele>31</ele>
        <time>2022-08-29T20:04:17.371Z</time>
      </trkpt>
      <trkpt lat="47.14985" lon="-1.53324">
        <ele>31</ele>
        <time>2022-08-29T20:04:23.077Z</time>
      </trkpt>
      <trkpt lat="47.14969" lon="-1.53294">
        <ele>31</ele>
        <time>2022-08-29T20:04:28.787Z</time>
      </trkpt>
      <trkpt lat="47.14913" lon="-1.53221">
        <ele>31</ele>
        <time>2022-08-29T20:04:34.509Z</time>
      </trkpt>
      <trkpt lat="47.14904" lon="-1.53209">
        <ele>31</ele>
        <time>2022-08-29T20:04:40.233Z</time>
      </trkpt>
      <trkpt lat="47.14896" lon="-1.53199">
        <ele>31</ele>
        <time>2022-08-29T20:04:45.958Z</time>
      </trkpt>
      <trkpt lat="47.14887" lon="-1.53186">
        <ele>31</ele>
        <time>2022-08-29T20:04:51.685Z</time>
      </trkpt>
      <trkpt lat="47.14856" lon="-1.53147">
        <ele>31</ele>
        <time>2022-08-29T20:04:57.419Z</time>
      </trkpt>
      <trkpt lat="47.14838" lon="-1.53125">
        <ele>31</ele>
        <time>2022-08-29T20:05:03.157Z</time>
      </trkpt>
      <trkpt lat="47.14815" lon="-1.53094">
        <ele>31</ele>
        <time>2022-08-29T20:05:08.900Z</time>
      </trkpt>
      <trkpt lat="47.14841" lon="-1.5305">
        <ele>32</ele>
        <time>2022-08-29T20:05:14.649Z</time>
      </trkpt>
      <trkpt lat="47.14841" lon="-1.5305">
        <ele>32</ele>
        <time>2022-08-29T20:05:20.398Z</time>
      </trkpt>
      <trkpt lat="47.14857" lon="-1.53023">
        <ele>32</ele>
        <time>2022-08-29T20:05:26.151Z</time>
      </trkpt>
      <trkpt lat="47.14869" lon="-1.53009">
        <ele>32</ele>
        <time>2022-08-29T20:05:31.906Z</time>
      </trkpt>
      <trkpt lat="47.14866" lon="-1.52995">
        <ele>32</ele>
        <time>2022-08-29T20:05:37.663Z</time>
      </trkpt>
      <trkpt lat="47.14861" lon="-1.52981">
        <ele>32</ele>
        <time>2022-08-29T20:05:43.422Z</time>
      </trkpt>
      <trkpt lat="47.14843" lon="-1.52942">
        <ele>33</ele>
        <time>2022-08-29T20:05:49.186Z</time>
      </trkpt>
      <trkpt lat="47.14843" lon="-1.52942">
        <ele>33</ele>
        <time>2022-08-29T20:05:54.950Z</time>
      </trkpt>
      <trkpt lat="47.14805" lon="-1.52866">
        <ele>33</ele>
        <time>2022-08-29T20:06:00.724Z</time>
      </trkpt>
      <trkpt lat="47.14805" lon="-1.52866">
        <ele>34</ele>
        <time>2022-08-29T20:06:06.498Z</time>
      </trkpt>
      <trkpt lat="47.14778" lon="-1.52807">
        <ele>34</ele>
        <time>2022-08-29T20:06:12.280Z</time>
      </trkpt>
      <trkpt lat="47.14687" lon="-1.5261">
        <ele>34</ele>
        <time>2022-08-29T20:06:18.088Z</time>
      </trkpt>
      <trkpt lat="47.14652" lon="-1.52505">
        <ele>34</ele>
        <time>2022-08-29T20:06:23.909Z</time>
      </trkpt>
      <trkpt lat="47.14648" lon="-1.52496">
        <ele>35</ele>
        <time>2022-08-29T20:06:29.731Z</time>
      </trkpt>
      <trkpt lat="47.14596" lon="-1.52386">
        <ele>35</ele>
        <time>2022-08-29T20:06:35.567Z</time>
      </trkpt>
      <trkpt lat="47.14596" lon="-1.52386">
        <ele>35</ele>
        <time>2022-08-29T20:06:41.403Z</time>
      </trkpt>
      <trkpt lat="47.14592" lon="-1.52375">
        <ele>36</ele>
        <time>2022-08-29T20:06:47.241Z</time>
      </trkpt>
      <trkpt lat="47.14504" lon="-1.52191">
        <ele>36</ele>
        <time>2022-08-29T20:06:53.103Z</time>
      </trkpt>
      <trkpt lat="47.14498" lon="-1.52182">
        <ele>36</ele>
        <time>2022-08-29T20:06:58.967Z</time>
      </trkpt>
      <trkpt lat="47.14499" lon="-1.52174">
        <ele>37</ele>
        <time>2022-08-29T20:07:04.832Z</time>
      </trkpt>
      <trkpt lat="47.14498" lon="-1.52168">
        <ele>37</ele>
        <time>2022-08-29T20:07:10.697Z</time>
      </trkpt>
      <trkpt lat="47.14495" lon="-1.52165">
        <ele>37</ele>
        <time>2022-08-29T20:07:16.563Z</time>
      </trkpt>
      <trkpt lat="47.14499" lon="-1.52154">
        <ele>37</ele>
        <time>2022-08-29T20:07:22.430Z</time>
      </trkpt>
      <trkpt lat="47.14556" lon="-1.5203">
        <ele>36</ele>
        <time>2022-08-29T20:07:28.314Z</time>
      </trkpt>
      <trkpt lat="47.14569" lon="-1.51996">
        <ele>36</ele>
        <time>2022-08-29T20:07:34.202Z</time>
      </trkpt>
      <trkpt lat="47.14578" lon="-1.51978">
        <ele>36</ele>
        <time>2022-08-29T20:07:40.092Z</time>
      </trkpt>
      <trkpt lat="47.14578" lon="-1.51978">
        <ele>36</ele>
        <time>2022-08-29T20:07:45.982Z</time>
      </trkpt>
      <trkpt lat="47.14589" lon="-1.5195">
        <ele>36</ele>
        <time>2022-08-29T20:07:51.876Z</time>
      </trkpt>
      <trkpt lat="47.14594" lon="-1.51928">
        <ele>36</ele>
        <time>2022-08-29T20:07:57.772Z</time>
      </trkpt>
      <trkpt lat="47.14602" lon="-1.51877">
        <ele>35</ele>
        <time>2022-08-29T20:08:03.674Z</time>
      </trkpt>
      <trkpt lat="47.14614" lon="-1.51846">
        <ele>35</ele>
        <time>2022-08-29T20:08:09.580Z</time>
      </trkpt>
      <trkpt lat="47.14612" lon="-1.51837">
        <ele>35</ele>
        <time>2022-08-29T20:08:15.487Z</time>
      </trkpt>
      <trkpt lat="47.14614" lon="-1.51831">
        <ele>34</ele>
        <time>2022-08-29T20:08:21.395Z</time>
      </trkpt>
      <trkpt lat="47.14619" lon="-1.51828">
        <ele>34</ele>
        <time>2022-08-29T20:08:27.303Z</time>
      </trkpt>
      <trkpt lat="47.14608" lon="-1.51787">
        <ele>33</ele>
        <time>2022-08-29T20:08:33.216Z</time>
      </trkpt>
      <trkpt lat="47.14602" lon="-1.51771">
        <ele>33</ele>
        <time>2022-08-29T20:08:39.131Z</time>
      </trkpt>
      <trkpt lat="47.14584" lon="-1.51713">
        <ele>32</ele>
        <time>2022-08-29T20:08:45.053Z</time>
      </trkpt>
      <trkpt lat="47.1458" lon="-1.51699">
        <ele>32</ele>
        <time>2022-08-29T20:08:50.977Z</time>
      </trkpt>
      <trkpt lat="47.14551" lon="-1.51608">
        <ele>31</ele>
        <time>2022-08-29T20:08:56.912Z</time>
      </trkpt>
      <trkpt lat="47.14546" lon="-1.51591">
        <ele>31</ele>
        <time>2022-08-29T20:09:02.849Z</time>
      </trkpt>
      <trkpt lat="47.14585" lon="-1.51527">
        <ele>30</ele>
        <time>2022-08-29T20:09:08.795Z</time>
      </trkpt>
      <trkpt lat="47.14605" lon="-1.51489">
        <ele>30</ele>
        <time>2022-08-29T20:09:14.746Z</time>
      </trkpt>
      <trkpt lat="47.14638" lon="-1.51421">
        <ele>30</ele>
        <time>2022-08-29T20:09:20.707Z</time>
      </trkpt>
      <trkpt lat="47.14638" lon="-1.51421">
        <ele>29</ele>
        <time>2022-08-29T20:09:26.668Z</time>
      </trkpt>
      <trkpt lat="47.14692" lon="-1.51316">
        <ele>29</ele>
        <time>2022-08-29T20:09:32.643Z</time>
      </trkpt>
      <trkpt lat="47.14687" lon="-1.51308">
        <ele>29</ele>
        <time>2022-08-29T20:09:38.619Z</time>
      </trkpt>
      <trkpt lat="47.14682" lon="-1.51304">
        <ele>29</ele>
        <time>2022-08-29T20:09:44.596Z</time>
      </trkpt>
      <trkpt lat="47.14672" lon="-1.51298">
        <ele>29</ele>
        <time>2022-08-29T20:09:50.575Z</time>
      </trkpt>
      <trkpt lat="47.14663" lon="-1.51297">
        <ele>28</ele>
        <time>2022-08-29T20:09:56.555Z</time>
      </trkpt>
      <trkpt lat="47.146" lon="-1.5131">
        <ele>29</ele>
        <time>2022-08-29T20:10:02.545Z</time>
      </trkpt>
      <trkpt lat="47.14572" lon="-1.51312">
        <ele>29</ele>
        <time>2022-08-29T20:10:08.540Z</time>
      </trkpt>
      <trkpt lat="47.14531" lon="-1.51311">
        <ele>29</ele>
        <time>2022-08-29T20:10:14.541Z</time>
      </trkpt>
      <trkpt lat="47.14463" lon="-1.51304">
        <ele>29</ele>
        <time>2022-08-29T20:10:20.553Z</time>
      </trkpt>
      <trkpt lat="47.14442" lon="-1.51293">
        <ele>29</ele>
        <time>2022-08-29T20:10:26.569Z</time>
      </trkpt>
      <trkpt lat="47.14436" lon="-1.51287">
        <ele>30</ele>
        <time>2022-08-29T20:10:32.586Z</time>
      </trkpt>
      <trkpt lat="47.14421" lon="-1.5127">
        <ele>30</ele>
        <time>2022-08-29T20:10:38.606Z</time>
      </trkpt>
      <trkpt lat="47.14407" lon="-1.51241">
        <ele>30</ele>
        <time>2022-08-29T20:10:44.630Z</time>
      </trkpt>
      <trkpt lat="47.14358" lon="-1.51109">
        <ele>31</ele>
        <time>2022-08-29T20:10:50.670Z</time>
      </trkpt>
      <trkpt lat="47.14312" lon="-1.5099">
        <ele>31</ele>
        <time>2022-08-29T20:10:56.725Z</time>
      </trkpt>
      <trkpt lat="47.14289" lon="-1.50916">
        <ele>32</ele>
        <time>2022-08-29T20:11:02.789Z</time>
      </trkpt>
      <trkpt lat="47.14263" lon="-1.50823">
        <ele>32</ele>
        <time>2022-08-29T20:11:08.864Z</time>
      </trkpt>
      <trkpt lat="47.14263" lon="-1.50823">
        <ele>32</ele>
        <time>2022-08-29T20:11:14.939Z</time>
      </trkpt>
      <trkpt lat="47.14238" lon="-1.50725">
        <ele>33</ele>
        <time>2022-08-29T20:11:21.026Z</time>
      </trkpt>
      <trkpt lat="47.14204" lon="-1.50558">
        <ele>33</ele>
        <time>2022-08-29T20:11:27.132Z</time>
      </trkpt>
      <trkpt lat="47.14169" lon="-1.50382">
        <ele>34</ele>
        <time>2022-08-29T20:11:33.258Z</time>
      </trkpt>
      <trkpt lat="47.14166" lon="-1.50361">
        <ele>35</ele>
        <time>2022-08-29T20:11:39.386Z</time>
      </trkpt>
      <trkpt lat="47.14166" lon="-1.50361">
        <ele>35</ele>
        <time>2022-08-29T20:11:45.514Z</time>
      </trkpt>
      <trkpt lat="47.14162" lon="-1.50316">
        <ele>36</ele>
        <time>2022-08-29T20:11:51.647Z</time>
      </trkpt>
      <trkpt lat="47.14157" lon="-1.50227">
        <ele>36</ele>
        <time>2022-08-29T20:11:57.790Z</time>
      </trkpt>
      <trkpt lat="47.14149" lon="-1.50154">
        <ele>37</ele>
        <time>2022-08-29T20:12:03.941Z</time>
      </trkpt>
      <trkpt lat="47.14143" lon="-1.50123">
        <ele>37</ele>
        <time>2022-08-29T20:12:10.095Z</time>
      </trkpt>
      <trkpt lat="47.141" lon="-1.49881">
        <ele>38</ele>
        <time>2022-08-29T20:12:16.277Z</time>
      </trkpt>
      <trkpt lat="47.14095" lon="-1.49825">
        <ele>39</ele>
        <time>2022-08-29T20:12:22.465Z</time>
      </trkpt>
      <trkpt lat="47.14097" lon="-1.49212">
        <ele>40</ele>
        <time>2022-08-29T20:12:28.720Z</time>
      </trkpt>
      <trkpt lat="47.14097" lon="-1.49058">
        <ele>41</ele>
        <time>2022-08-29T20:12:34.992Z</time>
      </trkpt>
      <trkpt lat="47.14097" lon="-1.49054">
        <ele>41</ele>
        <time>2022-08-29T20:12:41.264Z</time>
      </trkpt>
      <trkpt lat="47.14096" lon="-1.49045">
        <ele>42</ele>
        <time>2022-08-29T20:12:47.537Z</time>
      </trkpt>
      <trkpt lat="47.14089" lon="-1.49">
        <ele>42</ele>
        <time>2022-08-29T20:12:53.815Z</time>
      </trkpt>
      <trkpt lat="47.14049" lon="-1.48811">
        <ele>43</ele>
        <time>2022-08-29T20:13:00.115Z</time>
      </trkpt>
      <trkpt lat="47.14019" lon="-1.4862">
        <ele>44</ele>
        <time>2022-08-29T20:13:06.436Z</time>
      </trkpt>
      <trkpt lat="47.14019" lon="-1.4862">
        <ele>44</ele>
        <time>2022-08-29T20:13:12.757Z</time>
      </trkpt>
      <trkpt lat="47.13994" lon="-1.48461">
        <ele>44</ele>
        <time>2022-08-29T20:13:19.096Z</time>
      </trkpt>
      <trkpt lat="47.13992" lon="-1.48432">
        <ele>45</ele>
        <time>2022-08-29T20:13:25.438Z</time>
      </trkpt>
      <trkpt lat="47.13989" lon="-1.48341">
        <ele>45</ele>
        <time>2022-08-29T20:13:31.790Z</time>
      </trkpt>
      <trkpt lat="47.13986" lon="-1.4823">
        <ele>45</ele>
        <time>2022-08-29T20:13:38.154Z</time>
      </trkpt>
      <trkpt lat="47.13984" lon="-1.48207">
        <ele>46</ele>
        <time>2022-08-29T20:13:44.521Z</time>
      </trkpt>
      <trkpt lat="47.13978" lon="-1.48019">
        <ele>46</ele>
        <time>2022-08-29T20:13:50.908Z</time>
      </trkpt>
      <trkpt lat="47.13977" lon="-1.47983">
        <ele>46</ele>
        <time>2022-08-29T20:13:57.299Z</time>
      </trkpt>
      <trkpt lat="47.13971" lon="-1.47938">
        <ele>46</ele>
        <time>2022-08-29T20:14:03.695Z</time>
      </trkpt>
      <trkpt lat="47.13957" lon="-1.4788">
        <ele>47</ele>
        <time>2022-08-29T20:14:10.098Z</time>
      </trkpt>
      <trkpt lat="47.13925" lon="-1.47765">
        <ele>47</ele>
        <time>2022-08-29T20:14:16.514Z</time>
      </trkpt>
      <trkpt lat="47.13917" lon="-1.47735">
        <ele>47</ele>
        <time>2022-08-29T20:14:22.934Z</time>
      </trkpt>
      <trkpt lat="47.13917" lon="-1.47735">
        <ele>47</ele>
        <time>2022-08-29T20:14:29.354Z</time>
      </trkpt>
      <trkpt lat="47.13839" lon="-1.47449">
        <ele>47</ele>
        <time>2022-08-29T20:14:35.808Z</time>
      </trkpt>
      <trkpt lat="47.13836" lon="-1.47443">
        <ele>47</ele>
        <time>2022-08-29T20:14:42.262Z</time>
      </trkpt>
      <trkpt lat="47.13785" lon="-1.47248">
        <ele>47</ele>
        <time>2022-08-29T20:14:48.739Z</time>
      </trkpt>
      <trkpt lat="47.13777" lon="-1.47206">
        <ele>47</ele>
        <time>2022-08-29T20:14:55.221Z</time>
      </trkpt>
      <trkpt lat="47.13777" lon="-1.47206">
        <ele>47</ele>
        <time>2022-08-29T20:15:01.703Z</time>
      </trkpt>
      <trkpt lat="47.13776" lon="-1.47188">
        <ele>48</ele>
        <time>2022-08-29T20:15:08.187Z</time>
      </trkpt>
      <trkpt lat="47.13776" lon="-1.47151">
        <ele>48</ele>
        <time>2022-08-29T20:15:14.675Z</time>
      </trkpt>
      <trkpt lat="47.13778" lon="-1.47115">
        <ele>48</ele>
        <time>2022-08-29T20:15:21.167Z</time>
      </trkpt>
      <trkpt lat="47.13782" lon="-1.47054">
        <ele>49</ele>
        <time>2022-08-29T20:15:27.666Z</time>
      </trkpt>
      <trkpt lat="47.13781" lon="-1.47012">
        <ele>49</ele>
        <time>2022-08-29T20:15:34.169Z</time>
      </trkpt>
      <trkpt lat="47.13776" lon="-1.46964">
        <ele>50</ele>
        <time>2022-08-29T20:15:40.678Z</time>
      </trkpt>
      <trkpt lat="47.13772" lon="-1.469">
        <ele>50</ele>
        <time>2022-08-29T20:15:47.194Z</time>
      </trkpt>
      <trkpt lat="47.13767" lon="-1.46862">
        <ele>50</ele>
        <time>2022-08-29T20:15:53.714Z</time>
      </trkpt>
      <trkpt lat="47.13748" lon="-1.46767">
        <ele>51</ele>
        <time>2022-08-29T20:16:00.245Z</time>
      </trkpt>
      <trkpt lat="47.13741" lon="-1.4673">
        <ele>51</ele>
        <time>2022-08-29T20:16:06.780Z</time>
      </trkpt>
      <trkpt lat="47.13723" lon="-1.46632">
        <ele>52</ele>
        <time>2022-08-29T20:16:13.326Z</time>
      </trkpt>
      <trkpt lat="47.13715" lon="-1.46597">
        <ele>52</ele>
        <time>2022-08-29T20:16:19.876Z</time>
      </trkpt>
      <trkpt lat="47.13704" lon="-1.46564">
        <ele>52</ele>
        <time>2022-08-29T20:16:26.430Z</time>
      </trkpt>
      <trkpt lat="47.13701" lon="-1.46552">
        <ele>53</ele>
        <time>2022-08-29T20:16:32.985Z</time>
      </trkpt>
      <trkpt lat="47.13695" lon="-1.46536">
        <ele>53</ele>
        <time>2022-08-29T20:16:39.542Z</time>
      </trkpt>
      <trkpt lat="47.13684" lon="-1.46508">
        <ele>53</ele>
        <time>2022-08-29T20:16:46.103Z</time>
      </trkpt>
      <trkpt lat="47.13671" lon="-1.46466">
        <ele>54</ele>
        <time>2022-08-29T20:16:52.669Z</time>
      </trkpt>
      <trkpt lat="47.13669" lon="-1.46437">
        <ele>54</ele>
        <time>2022-08-29T20:16:59.238Z</time>
      </trkpt>
      <trkpt lat="47.1367" lon="-1.46414">
        <ele>54</ele>
        <time>2022-08-29T20:17:05.810Z</time>
      </trkpt>
      <trkpt lat="47.1367" lon="-1.46414">
        <ele>54</ele>
        <time>2022-08-29T20:17:12.382Z</time>
      </trkpt>
      <trkpt lat="47.13674" lon="-1.46356">
        <ele>54</ele>
        <time>2022-08-29T20:17:18.960Z</time>
      </trkpt>
      <trkpt lat="47.13673" lon="-1.4634">
        <ele>54</ele>
        <time>2022-08-29T20:17:25.540Z</time>
      </trkpt>
      <trkpt lat="47.13666" lon="-1.46305">
        <ele>54</ele>
        <time>2022-08-29T20:17:32.124Z</time>
      </trkpt>
      <trkpt lat="47.13665" lon="-1.46296">
        <ele>54</ele>
        <time>2022-08-29T20:17:38.709Z</time>
      </trkpt>
      <trkpt lat="47.1361" lon="-1.46115">
        <ele>54</ele>
        <time>2022-08-29T20:17:45.315Z</time>
      </trkpt>
      <trkpt lat="47.1361" lon="-1.46115">
        <ele>54</ele>
        <time>2022-08-29T20:17:51.921Z</time>
      </trkpt>
      <trkpt lat="47.13564" lon="-1.4597">
        <ele>54</ele>
        <time>2022-08-29T20:17:58.545Z</time>
      </trkpt>
      <trkpt lat="47.13557" lon="-1.45955">
        <ele>54</ele>
        <time>2022-08-29T20:18:05.171Z</time>
      </trkpt>
      <trkpt lat="47.13532" lon="-1.45909">
        <ele>54</ele>
        <time>2022-08-29T20:18:11.803Z</time>
      </trkpt>
      <trkpt lat="47.13365" lon="-1.45664">
        <ele>54</ele>
        <time>2022-08-29T20:18:18.473Z</time>
      </trkpt>
      <trkpt lat="47.13218" lon="-1.45429">
        <ele>54</ele>
        <time>2022-08-29T20:18:25.178Z</time>
      </trkpt>
      <trkpt lat="47.13178" lon="-1.45375">
        <ele>53</ele>
        <time>2022-08-29T20:18:31.892Z</time>
      </trkpt>
      <trkpt lat="47.13157" lon="-1.45351">
        <ele>53</ele>
        <time>2022-08-29T20:18:38.610Z</time>
      </trkpt>
      <trkpt lat="47.13157" lon="-1.45351">
        <ele>53</ele>
        <time>2022-08-29T20:18:45.328Z</time>
      </trkpt>
      <trkpt lat="47.13074" lon="-1.45281">
        <ele>53</ele>
        <time>2022-08-29T20:18:52.061Z</time>
      </trkpt>
      <trkpt lat="47.13075" lon="-1.45254">
        <ele>53</ele>
        <time>2022-08-29T20:18:58.797Z</time>
      </trkpt>
      <trkpt lat="47.1308" lon="-1.45191">
        <ele>52</ele>
        <time>2022-08-29T20:19:05.540Z</time>
      </trkpt>
      <trkpt lat="47.13096" lon="-1.45116">
        <ele>52</ele>
        <time>2022-08-29T20:19:12.292Z</time>
      </trkpt>
      <trkpt lat="47.1311" lon="-1.44996">
        <ele>51</ele>
        <time>2022-08-29T20:19:19.057Z</time>
      </trkpt>
      <trkpt lat="47.13129" lon="-1.4485">
        <ele>51</ele>
        <time>2022-08-29T20:19:25.838Z</time>
      </trkpt>
      <trkpt lat="47.13129" lon="-1.4481">
        <ele>51</ele>
        <time>2022-08-29T20:19:32.624Z</time>
      </trkpt>
      <trkpt lat="47.13114" lon="-1.44748">
        <ele>51</ele>
        <time>2022-08-29T20:19:39.417Z</time>
      </trkpt>
      <trkpt lat="47.13106" lon="-1.44703">
        <ele>50</ele>
        <time>2022-08-29T20:19:46.215Z</time>
      </trkpt>
      <trkpt lat="47.13098" lon="-1.44591">
        <ele>50</ele>
        <time>2022-08-29T20:19:53.025Z</time>
      </trkpt>
      <trkpt lat="47.13096" lon="-1.44562">
        <ele>50</ele>
        <time>2022-08-29T20:19:59.838Z</time>
      </trkpt>
      <trkpt lat="47.13091" lon="-1.44536">
        <ele>50</ele>
        <time>2022-08-29T20:20:06.654Z</time>
      </trkpt>
      <trkpt lat="47.13047" lon="-1.44395">
        <ele>50</ele>
        <time>2022-08-29T20:20:13.487Z</time>
      </trkpt>
      <trkpt lat="47.13036" lon="-1.44314">
        <ele>50</ele>
        <time>2022-08-29T20:20:20.329Z</time>
      </trkpt>
      <trkpt lat="47.13036" lon="-1.44314">
        <ele>50</ele>
        <time>2022-08-29T20:20:27.171Z</time>
      </trkpt>
      <trkpt lat="47.13008" lon="-1.44191">
        <ele>50</ele>
        <time>2022-08-29T20:20:34.027Z</time>
      </trkpt>
      <trkpt lat="47.12973" lon="-1.441">
        <ele>50</ele>
        <time>2022-08-29T20:20:40.895Z</time>
      </trkpt>
      <trkpt lat="47.1294" lon="-1.44019">
        <ele>51</ele>
        <time>2022-08-29T20:20:47.773Z</time>
      </trkpt>
      <trkpt lat="47.1289" lon="-1.43896">
        <ele>51</ele>
        <time>2022-08-29T20:20:54.667Z</time>
      </trkpt>
      <trkpt lat="47.12878" lon="-1.43864">
        <ele>52</ele>
        <time>2022-08-29T20:21:01.565Z</time>
      </trkpt>
      <trkpt lat="47.12844" lon="-1.43755">
        <ele>52</ele>
        <time>2022-08-29T20:21:08.476Z</time>
      </trkpt>
      <trkpt lat="47.12833" lon="-1.43719">
        <ele>52</ele>
        <time>2022-08-29T20:21:15.391Z</time>
      </trkpt>
      <trkpt lat="47.12833" lon="-1.43719">
        <ele>53</ele>
        <time>2022-08-29T20:21:22.306Z</time>
      </trkpt>
      <trkpt lat="47.12795" lon="-1.43614">
        <ele>53</ele>
        <time>2022-08-29T20:21:29.234Z</time>
      </trkpt>
      <trkpt lat="47.12761" lon="-1.43501">
        <ele>54</ele>
        <time>2022-08-29T20:21:36.176Z</time>
      </trkpt>
      <trkpt lat="47.1274" lon="-1.4345">
        <ele>54</ele>
        <time>2022-08-29T20:21:43.124Z</time>
      </trkpt>
      <trkpt lat="47.12677" lon="-1.43296">
        <ele>55</ele>
        <time>2022-08-29T20:21:50.092Z</time>
      </trkpt>
      <trkpt lat="47.12657" lon="-1.43244">
        <ele>55</ele>
        <time>2022-08-29T20:21:57.066Z</time>
      </trkpt>
      <trkpt lat="47.12654" lon="-1.43219">
        <ele>56</ele>
        <time>2022-08-29T20:22:04.043Z</time>
      </trkpt>
      <trkpt lat="47.12648" lon="-1.43191">
        <ele>56</ele>
        <time>2022-08-29T20:22:11.023Z</time>
      </trkpt>
      <trkpt lat="47.12636" lon="-1.43152">
        <ele>57</ele>
        <time>2022-08-29T20:22:18.008Z</time>
      </trkpt>
      <trkpt lat="47.12644" lon="-1.43142">
        <ele>57</ele>
        <time>2022-08-29T20:22:24.995Z</time>
      </trkpt>
      <trkpt lat="47.12674" lon="-1.43112">
        <ele>57</ele>
        <time>2022-08-29T20:22:31.988Z</time>
      </trkpt>
      <trkpt lat="47.12669" lon="-1.43101">
        <ele>58</ele>
        <time>2022-08-29T20:22:38.982Z</time>
      </trkpt>
    </trkseg>
  </trk>
</gpx>